<?xml version="1.0" encoding="UTF-8" standalone="no" ?>
<gpx xmlns="http://www.topografix.com/GPX/1/1" xmlns:xsi="http://www.w3.org/2001/XMLSchema-instance" xsi:schemaLocation="http://www.topografix.com/GPX/1/1 http://www.topografix.com/GPX/1/1/gpx.xsd" version="1.1" creator="VisuGPX - https://www.visugpx.com">
  <metadata>
    <name>Le Layens depuis le Col de Hourataté</name>
    <desc><![CDATA[Le Layens au départ du Col de Hourataté au dessus d'Osse en Aspe]]></desc>
  </metadata>
  <trk>
    <name><![CDATA[Le Layens depuis le Col de Hourataté_1]]></name>
    <trkseg>
      <trkpt lat="43.00562" lon="-0.66004">
        <ele>1015</ele>
        <time>2017-02-11T09:00:23Z</time>
      </trkpt>
      <trkpt lat="43.00564" lon="-0.65997">
        <ele>1015</ele>
        <time>2017-02-11T09:00:23Z</time>
      </trkpt>
      <trkpt lat="43.00565" lon="-0.65994">
        <ele>1015</ele>
        <time>2017-02-11T09:00:23Z</time>
      </trkpt>
      <trkpt lat="43.00566" lon="-0.65985">
        <ele>1015</ele>
        <time>2017-02-11T09:00:23Z</time>
      </trkpt>
      <trkpt lat="43.00566" lon="-0.65983">
        <ele>1015</ele>
        <time>2017-02-11T09:01:51Z</time>
      </trkpt>
      <trkpt lat="43.00566" lon="-0.65978">
        <ele>1015</ele>
        <time>2017-02-11T09:01:51Z</time>
      </trkpt>
      <trkpt lat="43.00566" lon="-0.65971">
        <ele>1015</ele>
        <time>2017-02-11T09:01:51Z</time>
      </trkpt>
      <trkpt lat="43.00567" lon="-0.6597">
        <ele>1015</ele>
        <time>2017-02-11T09:01:51Z</time>
      </trkpt>
      <trkpt lat="43.00567" lon="-0.65969">
        <ele>1015</ele>
        <time>2017-02-11T09:02:51Z</time>
      </trkpt>
      <trkpt lat="43.00568" lon="-0.65964">
        <ele>1015</ele>
        <time>2017-02-11T09:02:51Z</time>
      </trkpt>
      <trkpt lat="43.00568" lon="-0.65949">
        <ele>989</ele>
        <time>2017-02-11T09:02:51Z</time>
      </trkpt>
      <trkpt lat="43.00566" lon="-0.65939">
        <ele>989</ele>
        <time>2017-02-11T09:02:51Z</time>
      </trkpt>
      <trkpt lat="43.00564" lon="-0.65929">
        <ele>989</ele>
        <time>2017-02-11T09:02:51Z</time>
      </trkpt>
      <trkpt lat="43.00564" lon="-0.65933">
        <ele>989</ele>
        <time>2017-02-11T09:16:29Z</time>
      </trkpt>
      <trkpt lat="43.00564" lon="-0.65933">
        <ele>989</ele>
        <time>2017-02-11T09:16:29Z</time>
      </trkpt>
      <trkpt lat="43.00565" lon="-0.65934">
        <ele>989</ele>
        <time>2017-02-11T09:16:29Z</time>
      </trkpt>
      <trkpt lat="43.00565" lon="-0.65934">
        <ele>989</ele>
        <time>2017-02-11T09:16:29Z</time>
      </trkpt>
      <trkpt lat="43.00566" lon="-0.65939">
        <ele>989</ele>
        <time>2017-02-11T09:16:29Z</time>
      </trkpt>
      <trkpt lat="43.00567" lon="-0.65946">
        <ele>989</ele>
        <time>2017-02-11T09:16:53Z</time>
      </trkpt>
      <trkpt lat="43.00567" lon="-0.6595">
        <ele>989</ele>
        <time>2017-02-11T09:16:53Z</time>
      </trkpt>
      <trkpt lat="43.00567" lon="-0.65953">
        <ele>989</ele>
        <time>2017-02-11T09:16:53Z</time>
      </trkpt>
      <trkpt lat="43.00566" lon="-0.65956">
        <ele>989</ele>
        <time>2017-02-11T09:16:53Z</time>
      </trkpt>
      <trkpt lat="43.00565" lon="-0.65963">
        <ele>1015</ele>
        <time>2017-02-11T09:16:53Z</time>
      </trkpt>
      <trkpt lat="43.00565" lon="-0.65965">
        <ele>1015</ele>
        <time>2017-02-11T09:17:13Z</time>
      </trkpt>
      <trkpt lat="43.00565" lon="-0.65969">
        <ele>1015</ele>
        <time>2017-02-11T09:17:13Z</time>
      </trkpt>
      <trkpt lat="43.00564" lon="-0.65973">
        <ele>1015</ele>
        <time>2017-02-11T09:17:13Z</time>
      </trkpt>
      <trkpt lat="43.00564" lon="-0.65977">
        <ele>1015</ele>
        <time>2017-02-11T09:17:13Z</time>
      </trkpt>
      <trkpt lat="43.00567" lon="-0.65979">
        <ele>1015</ele>
        <time>2017-02-11T09:17:13Z</time>
      </trkpt>
      <trkpt lat="43.0057" lon="-0.65976">
        <ele>1015</ele>
        <time>2017-02-11T09:17:29Z</time>
      </trkpt>
      <trkpt lat="43.00572" lon="-0.65969">
        <ele>1015</ele>
        <time>2017-02-11T09:17:29Z</time>
      </trkpt>
      <trkpt lat="43.00574" lon="-0.65965">
        <ele>1015</ele>
        <time>2017-02-11T09:17:29Z</time>
      </trkpt>
      <trkpt lat="43.00575" lon="-0.65963">
        <ele>1015</ele>
        <time>2017-02-11T09:17:29Z</time>
      </trkpt>
      <trkpt lat="43.00579" lon="-0.65956">
        <ele>989</ele>
        <time>2017-02-11T09:17:57Z</time>
      </trkpt>
      <trkpt lat="43.00581" lon="-0.65955">
        <ele>989</ele>
        <time>2017-02-11T09:17:57Z</time>
      </trkpt>
      <trkpt lat="43.00583" lon="-0.65955">
        <ele>989</ele>
        <time>2017-02-11T09:17:57Z</time>
      </trkpt>
      <trkpt lat="43.00585" lon="-0.65955">
        <ele>989</ele>
        <time>2017-02-11T09:17:57Z</time>
      </trkpt>
      <trkpt lat="43.00588" lon="-0.65953">
        <ele>989</ele>
        <time>2017-02-11T09:17:57Z</time>
      </trkpt>
      <trkpt lat="43.0059" lon="-0.65953">
        <ele>989</ele>
        <time>2017-02-11T09:18:13Z</time>
      </trkpt>
      <trkpt lat="43.00593" lon="-0.65954">
        <ele>989</ele>
        <time>2017-02-11T09:18:13Z</time>
      </trkpt>
      <trkpt lat="43.00596" lon="-0.65955">
        <ele>989</ele>
        <time>2017-02-11T09:18:13Z</time>
      </trkpt>
      <trkpt lat="43.00599" lon="-0.65956">
        <ele>989</ele>
        <time>2017-02-11T09:18:13Z</time>
      </trkpt>
      <trkpt lat="43.00603" lon="-0.65958">
        <ele>989</ele>
        <time>2017-02-11T09:18:29Z</time>
      </trkpt>
      <trkpt lat="43.00606" lon="-0.6596">
        <ele>1015</ele>
        <time>2017-02-11T09:18:29Z</time>
      </trkpt>
      <trkpt lat="43.00609" lon="-0.65962">
        <ele>1015</ele>
        <time>2017-02-11T09:18:29Z</time>
      </trkpt>
      <trkpt lat="43.00611" lon="-0.65965">
        <ele>1015</ele>
        <time>2017-02-11T09:18:29Z</time>
      </trkpt>
      <trkpt lat="43.00612" lon="-0.6597">
        <ele>1015</ele>
        <time>2017-02-11T09:18:45Z</time>
      </trkpt>
      <trkpt lat="43.00615" lon="-0.65971">
        <ele>1015</ele>
        <time>2017-02-11T09:18:45Z</time>
      </trkpt>
      <trkpt lat="43.00618" lon="-0.65973">
        <ele>1015</ele>
        <time>2017-02-11T09:18:45Z</time>
      </trkpt>
      <trkpt lat="43.00621" lon="-0.65976">
        <ele>1015</ele>
        <time>2017-02-11T09:18:45Z</time>
      </trkpt>
      <trkpt lat="43.00624" lon="-0.65979">
        <ele>1015</ele>
        <time>2017-02-11T09:19:01Z</time>
      </trkpt>
      <trkpt lat="43.00628" lon="-0.65982">
        <ele>994</ele>
        <time>2017-02-11T09:19:01Z</time>
      </trkpt>
      <trkpt lat="43.00631" lon="-0.65985">
        <ele>994</ele>
        <time>2017-02-11T09:19:01Z</time>
      </trkpt>
      <trkpt lat="43.00634" lon="-0.65987">
        <ele>994</ele>
        <time>2017-02-11T09:19:01Z</time>
      </trkpt>
      <trkpt lat="43.00641" lon="-0.65991">
        <ele>994</ele>
        <time>2017-02-11T09:19:29Z</time>
      </trkpt>
      <trkpt lat="43.00642" lon="-0.65993">
        <ele>994</ele>
        <time>2017-02-11T09:19:29Z</time>
      </trkpt>
      <trkpt lat="43.00642" lon="-0.65995">
        <ele>994</ele>
        <time>2017-02-11T09:19:29Z</time>
      </trkpt>
      <trkpt lat="43.00642" lon="-0.65996">
        <ele>994</ele>
        <time>2017-02-11T09:19:29Z</time>
      </trkpt>
      <trkpt lat="43.00643" lon="-0.65998">
        <ele>994</ele>
        <time>2017-02-11T09:19:29Z</time>
      </trkpt>
      <trkpt lat="43.00646" lon="-0.66005">
        <ele>994</ele>
        <time>2017-02-11T09:19:57Z</time>
      </trkpt>
      <trkpt lat="43.00648" lon="-0.66005">
        <ele>994</ele>
        <time>2017-02-11T09:19:57Z</time>
      </trkpt>
      <trkpt lat="43.00648" lon="-0.66007">
        <ele>994</ele>
        <time>2017-02-11T09:19:57Z</time>
      </trkpt>
      <trkpt lat="43.00648" lon="-0.66009">
        <ele>994</ele>
        <time>2017-02-11T09:19:57Z</time>
      </trkpt>
      <trkpt lat="43.00649" lon="-0.66016">
        <ele>994</ele>
        <time>2017-02-11T09:19:57Z</time>
      </trkpt>
      <trkpt lat="43.00651" lon="-0.66023">
        <ele>994</ele>
        <time>2017-02-11T09:20:13Z</time>
      </trkpt>
      <trkpt lat="43.00654" lon="-0.66036">
        <ele>994</ele>
        <time>2017-02-11T09:20:13Z</time>
      </trkpt>
      <trkpt lat="43.00656" lon="-0.66043">
        <ele>1007</ele>
        <time>2017-02-11T09:20:13Z</time>
      </trkpt>
      <trkpt lat="43.00657" lon="-0.66049">
        <ele>1007</ele>
        <time>2017-02-11T09:20:13Z</time>
      </trkpt>
      <trkpt lat="43.00657" lon="-0.66052">
        <ele>1007</ele>
        <time>2017-02-11T09:20:33Z</time>
      </trkpt>
      <trkpt lat="43.00657" lon="-0.66055">
        <ele>1007</ele>
        <time>2017-02-11T09:20:33Z</time>
      </trkpt>
      <trkpt lat="43.00657" lon="-0.66059">
        <ele>1007</ele>
        <time>2017-02-11T09:20:33Z</time>
      </trkpt>
      <trkpt lat="43.00657" lon="-0.66064">
        <ele>1007</ele>
        <time>2017-02-11T09:20:33Z</time>
      </trkpt>
      <trkpt lat="43.00657" lon="-0.66067">
        <ele>1007</ele>
        <time>2017-02-11T09:20:33Z</time>
      </trkpt>
      <trkpt lat="43.00658" lon="-0.66068">
        <ele>1007</ele>
        <time>2017-02-11T09:20:53Z</time>
      </trkpt>
      <trkpt lat="43.00659" lon="-0.6607">
        <ele>1007</ele>
        <time>2017-02-11T09:20:53Z</time>
      </trkpt>
      <trkpt lat="43.0066" lon="-0.66075">
        <ele>1007</ele>
        <time>2017-02-11T09:20:53Z</time>
      </trkpt>
      <trkpt lat="43.00662" lon="-0.66078">
        <ele>1007</ele>
        <time>2017-02-11T09:20:53Z</time>
      </trkpt>
      <trkpt lat="43.00663" lon="-0.66084">
        <ele>1007</ele>
        <time>2017-02-11T09:20:53Z</time>
      </trkpt>
      <trkpt lat="43.00664" lon="-0.66088">
        <ele>1007</ele>
        <time>2017-02-11T09:21:09Z</time>
      </trkpt>
      <trkpt lat="43.00665" lon="-0.66091">
        <ele>1007</ele>
        <time>2017-02-11T09:21:09Z</time>
      </trkpt>
      <trkpt lat="43.00667" lon="-0.66103">
        <ele>1007</ele>
        <time>2017-02-11T09:21:09Z</time>
      </trkpt>
      <trkpt lat="43.00667" lon="-0.66103">
        <ele>1007</ele>
        <time>2017-02-11T09:21:09Z</time>
      </trkpt>
      <trkpt lat="43.00667" lon="-0.66105">
        <ele>1007</ele>
        <time>2017-02-11T09:21:29Z</time>
      </trkpt>
      <trkpt lat="43.00667" lon="-0.66105">
        <ele>1007</ele>
        <time>2017-02-11T09:21:29Z</time>
      </trkpt>
      <trkpt lat="43.00668" lon="-0.66108">
        <ele>1007</ele>
        <time>2017-02-11T09:21:29Z</time>
      </trkpt>
      <trkpt lat="43.00671" lon="-0.66114">
        <ele>1007</ele>
        <time>2017-02-11T09:21:29Z</time>
      </trkpt>
      <trkpt lat="43.00673" lon="-0.66115">
        <ele>1007</ele>
        <time>2017-02-11T09:21:29Z</time>
      </trkpt>
      <trkpt lat="43.00674" lon="-0.66116">
        <ele>1007</ele>
        <time>2017-02-11T09:21:45Z</time>
      </trkpt>
      <trkpt lat="43.00674" lon="-0.66116">
        <ele>1007</ele>
        <time>2017-02-11T09:21:45Z</time>
      </trkpt>
      <trkpt lat="43.00676" lon="-0.66118">
        <ele>1007</ele>
        <time>2017-02-11T09:21:45Z</time>
      </trkpt>
      <trkpt lat="43.00685" lon="-0.66136">
        <ele>1017</ele>
        <time>2017-02-11T09:21:45Z</time>
      </trkpt>
      <trkpt lat="43.00684" lon="-0.66143">
        <ele>1017</ele>
        <time>2017-02-11T09:22:01Z</time>
      </trkpt>
      <trkpt lat="43.00683" lon="-0.66154">
        <ele>1017</ele>
        <time>2017-02-11T09:22:01Z</time>
      </trkpt>
      <trkpt lat="43.00685" lon="-0.66156">
        <ele>1017</ele>
        <time>2017-02-11T09:22:01Z</time>
      </trkpt>
      <trkpt lat="43.00688" lon="-0.66159">
        <ele>1017</ele>
        <time>2017-02-11T09:22:01Z</time>
      </trkpt>
      <trkpt lat="43.00688" lon="-0.66159">
        <ele>1017</ele>
        <time>2017-02-11T09:22:21Z</time>
      </trkpt>
      <trkpt lat="43.00695" lon="-0.66162">
        <ele>1017</ele>
        <time>2017-02-11T09:22:21Z</time>
      </trkpt>
      <trkpt lat="43.00695" lon="-0.66162">
        <ele>1017</ele>
        <time>2017-02-11T09:22:21Z</time>
      </trkpt>
      <trkpt lat="43.00694" lon="-0.66166">
        <ele>1017</ele>
        <time>2017-02-11T09:22:21Z</time>
      </trkpt>
      <trkpt lat="43.00695" lon="-0.66169">
        <ele>1017</ele>
        <time>2017-02-11T09:22:21Z</time>
      </trkpt>
      <trkpt lat="43.00696" lon="-0.66169">
        <ele>1017</ele>
        <time>2017-02-11T09:22:37Z</time>
      </trkpt>
      <trkpt lat="43.00698" lon="-0.6617">
        <ele>1017</ele>
        <time>2017-02-11T09:22:37Z</time>
      </trkpt>
      <trkpt lat="43.00707" lon="-0.66171">
        <ele>1017</ele>
        <time>2017-02-11T09:22:37Z</time>
      </trkpt>
      <trkpt lat="43.00711" lon="-0.66173">
        <ele>1000</ele>
        <time>2017-02-11T09:22:37Z</time>
      </trkpt>
      <trkpt lat="43.00714" lon="-0.66174">
        <ele>1000</ele>
        <time>2017-02-11T09:23:09Z</time>
      </trkpt>
      <trkpt lat="43.00715" lon="-0.66175">
        <ele>1000</ele>
        <time>2017-02-11T09:23:09Z</time>
      </trkpt>
      <trkpt lat="43.00717" lon="-0.66175">
        <ele>1000</ele>
        <time>2017-02-11T09:23:09Z</time>
      </trkpt>
      <trkpt lat="43.0072" lon="-0.66176">
        <ele>1000</ele>
        <time>2017-02-11T09:23:09Z</time>
      </trkpt>
      <trkpt lat="43.00721" lon="-0.66176">
        <ele>1000</ele>
        <time>2017-02-11T09:23:09Z</time>
      </trkpt>
      <trkpt lat="43.00737" lon="-0.66174">
        <ele>1000</ele>
        <time>2017-02-11T09:23:25Z</time>
      </trkpt>
      <trkpt lat="43.00737" lon="-0.66174">
        <ele>1000</ele>
        <time>2017-02-11T09:23:25Z</time>
      </trkpt>
      <trkpt lat="43.00744" lon="-0.66175">
        <ele>1000</ele>
        <time>2017-02-11T09:23:25Z</time>
      </trkpt>
      <trkpt lat="43.00747" lon="-0.66176">
        <ele>1000</ele>
        <time>2017-02-11T09:23:25Z</time>
      </trkpt>
      <trkpt lat="43.00747" lon="-0.66176">
        <ele>1000</ele>
        <time>2017-02-11T09:23:45Z</time>
      </trkpt>
      <trkpt lat="43.00748" lon="-0.66177">
        <ele>1000</ele>
        <time>2017-02-11T09:23:45Z</time>
      </trkpt>
      <trkpt lat="43.0075" lon="-0.66178">
        <ele>1000</ele>
        <time>2017-02-11T09:23:45Z</time>
      </trkpt>
      <trkpt lat="43.00755" lon="-0.66187">
        <ele>1000</ele>
        <time>2017-02-11T09:23:45Z</time>
      </trkpt>
      <trkpt lat="43.00761" lon="-0.66195">
        <ele>1000</ele>
        <time>2017-02-11T09:24:37Z</time>
      </trkpt>
      <trkpt lat="43.00759" lon="-0.66197">
        <ele>1000</ele>
        <time>2017-02-11T09:24:37Z</time>
      </trkpt>
      <trkpt lat="43.00755" lon="-0.66199">
        <ele>1000</ele>
        <time>2017-02-11T09:24:37Z</time>
      </trkpt>
      <trkpt lat="43.00752" lon="-0.66202">
        <ele>1000</ele>
        <time>2017-02-11T09:24:37Z</time>
      </trkpt>
      <trkpt lat="43.00753" lon="-0.66209">
        <ele>1027</ele>
        <time>2017-02-11T09:24:37Z</time>
      </trkpt>
      <trkpt lat="43.00752" lon="-0.6621">
        <ele>1027</ele>
        <time>2017-02-11T09:24:53Z</time>
      </trkpt>
      <trkpt lat="43.00752" lon="-0.66212">
        <ele>1027</ele>
        <time>2017-02-11T09:24:53Z</time>
      </trkpt>
      <trkpt lat="43.00755" lon="-0.66215">
        <ele>1027</ele>
        <time>2017-02-11T09:24:53Z</time>
      </trkpt>
      <trkpt lat="43.00761" lon="-0.66221">
        <ele>1027</ele>
        <time>2017-02-11T09:24:53Z</time>
      </trkpt>
      <trkpt lat="43.00762" lon="-0.66235">
        <ele>1027</ele>
        <time>2017-02-11T09:26:21Z</time>
      </trkpt>
      <trkpt lat="43.00763" lon="-0.66236">
        <ele>1027</ele>
        <time>2017-02-11T09:26:21Z</time>
      </trkpt>
      <trkpt lat="43.00763" lon="-0.66236">
        <ele>1027</ele>
        <time>2017-02-11T09:26:21Z</time>
      </trkpt>
      <trkpt lat="43.00763" lon="-0.66238">
        <ele>1027</ele>
        <time>2017-02-11T09:26:21Z</time>
      </trkpt>
      <trkpt lat="43.00766" lon="-0.66239">
        <ele>1027</ele>
        <time>2017-02-11T09:26:21Z</time>
      </trkpt>
      <trkpt lat="43.00766" lon="-0.66241">
        <ele>1027</ele>
        <time>2017-02-11T09:26:53Z</time>
      </trkpt>
      <trkpt lat="43.00767" lon="-0.66242">
        <ele>1027</ele>
        <time>2017-02-11T09:26:53Z</time>
      </trkpt>
      <trkpt lat="43.00766" lon="-0.66246">
        <ele>1027</ele>
        <time>2017-02-11T09:26:53Z</time>
      </trkpt>
      <trkpt lat="43.00765" lon="-0.66251">
        <ele>1027</ele>
        <time>2017-02-11T09:26:53Z</time>
      </trkpt>
      <trkpt lat="43.00765" lon="-0.66253">
        <ele>1027</ele>
        <time>2017-02-11T09:26:53Z</time>
      </trkpt>
      <trkpt lat="43.00765" lon="-0.66253">
        <ele>1027</ele>
        <time>2017-02-11T09:27:17Z</time>
      </trkpt>
      <trkpt lat="43.00766" lon="-0.66258">
        <ele>1027</ele>
        <time>2017-02-11T09:27:17Z</time>
      </trkpt>
      <trkpt lat="43.00772" lon="-0.66261">
        <ele>1027</ele>
        <time>2017-02-11T09:27:17Z</time>
      </trkpt>
      <trkpt lat="43.00772" lon="-0.66261">
        <ele>1027</ele>
        <time>2017-02-11T09:27:17Z</time>
      </trkpt>
      <trkpt lat="43.00774" lon="-0.66262">
        <ele>1027</ele>
        <time>2017-02-11T09:27:17Z</time>
      </trkpt>
      <trkpt lat="43.00776" lon="-0.66263">
        <ele>1027</ele>
        <time>2017-02-11T09:27:33Z</time>
      </trkpt>
      <trkpt lat="43.00785" lon="-0.6627">
        <ele>1027</ele>
        <time>2017-02-11T09:27:33Z</time>
      </trkpt>
      <trkpt lat="43.00786" lon="-0.66272">
        <ele>1027</ele>
        <time>2017-02-11T09:27:33Z</time>
      </trkpt>
      <trkpt lat="43.00789" lon="-0.66274">
        <ele>1027</ele>
        <time>2017-02-11T09:27:33Z</time>
      </trkpt>
      <trkpt lat="43.00791" lon="-0.66275">
        <ele>1027</ele>
        <time>2017-02-11T09:27:49Z</time>
      </trkpt>
      <trkpt lat="43.00791" lon="-0.66277">
        <ele>1027</ele>
        <time>2017-02-11T09:27:49Z</time>
      </trkpt>
      <trkpt lat="43.00794" lon="-0.66291">
        <ele>1032</ele>
        <time>2017-02-11T09:27:49Z</time>
      </trkpt>
      <trkpt lat="43.00796" lon="-0.66295">
        <ele>1064</ele>
        <time>2017-02-11T09:27:49Z</time>
      </trkpt>
      <trkpt lat="43.00796" lon="-0.66296">
        <ele>1064</ele>
        <time>2017-02-11T09:28:05Z</time>
      </trkpt>
      <trkpt lat="43.00794" lon="-0.66301">
        <ele>1064</ele>
        <time>2017-02-11T09:28:05Z</time>
      </trkpt>
      <trkpt lat="43.00792" lon="-0.66306">
        <ele>1064</ele>
        <time>2017-02-11T09:28:05Z</time>
      </trkpt>
      <trkpt lat="43.00793" lon="-0.66314">
        <ele>1064</ele>
        <time>2017-02-11T09:28:05Z</time>
      </trkpt>
      <trkpt lat="43.00791" lon="-0.66317">
        <ele>1056</ele>
        <time>2017-02-11T09:28:37Z</time>
      </trkpt>
      <trkpt lat="43.00789" lon="-0.66318">
        <ele>1056</ele>
        <time>2017-02-11T09:28:37Z</time>
      </trkpt>
      <trkpt lat="43.00786" lon="-0.6632">
        <ele>1056</ele>
        <time>2017-02-11T09:28:37Z</time>
      </trkpt>
      <trkpt lat="43.00786" lon="-0.6632">
        <ele>1056</ele>
        <time>2017-02-11T09:28:37Z</time>
      </trkpt>
      <trkpt lat="43.00779" lon="-0.66317">
        <ele>1056</ele>
        <time>2017-02-11T09:28:37Z</time>
      </trkpt>
      <trkpt lat="43.0077" lon="-0.66329">
        <ele>1056</ele>
        <time>2017-02-11T09:30:09Z</time>
      </trkpt>
      <trkpt lat="43.00769" lon="-0.66332">
        <ele>1056</ele>
        <time>2017-02-11T09:30:09Z</time>
      </trkpt>
      <trkpt lat="43.00769" lon="-0.66332">
        <ele>1056</ele>
        <time>2017-02-11T09:30:09Z</time>
      </trkpt>
      <trkpt lat="43.00771" lon="-0.66336">
        <ele>1056</ele>
        <time>2017-02-11T09:30:09Z</time>
      </trkpt>
      <trkpt lat="43.00771" lon="-0.66336">
        <ele>1056</ele>
        <time>2017-02-11T09:30:09Z</time>
      </trkpt>
      <trkpt lat="43.00773" lon="-0.66337">
        <ele>1056</ele>
        <time>2017-02-11T09:30:45Z</time>
      </trkpt>
      <trkpt lat="43.00775" lon="-0.66341">
        <ele>1056</ele>
        <time>2017-02-11T09:30:45Z</time>
      </trkpt>
      <trkpt lat="43.00775" lon="-0.66341">
        <ele>1056</ele>
        <time>2017-02-11T09:30:45Z</time>
      </trkpt>
      <trkpt lat="43.00775" lon="-0.66345">
        <ele>1056</ele>
        <time>2017-02-11T09:30:45Z</time>
      </trkpt>
      <trkpt lat="43.00779" lon="-0.6635">
        <ele>1056</ele>
        <time>2017-02-11T09:30:45Z</time>
      </trkpt>
      <trkpt lat="43.00781" lon="-0.66353">
        <ele>1056</ele>
        <time>2017-02-11T09:31:01Z</time>
      </trkpt>
      <trkpt lat="43.00786" lon="-0.66364">
        <ele>1056</ele>
        <time>2017-02-11T09:31:01Z</time>
      </trkpt>
      <trkpt lat="43.0079" lon="-0.66366">
        <ele>1056</ele>
        <time>2017-02-11T09:31:01Z</time>
      </trkpt>
      <trkpt lat="43.00794" lon="-0.66368">
        <ele>1064</ele>
        <time>2017-02-11T09:31:01Z</time>
      </trkpt>
      <trkpt lat="43.00805" lon="-0.66368">
        <ele>1064</ele>
        <time>2017-02-11T09:31:33Z</time>
      </trkpt>
      <trkpt lat="43.00805" lon="-0.66368">
        <ele>1064</ele>
        <time>2017-02-11T09:31:33Z</time>
      </trkpt>
      <trkpt lat="43.00806" lon="-0.66368">
        <ele>1064</ele>
        <time>2017-02-11T09:31:33Z</time>
      </trkpt>
      <trkpt lat="43.00806" lon="-0.66368">
        <ele>1064</ele>
        <time>2017-02-11T09:31:33Z</time>
      </trkpt>
      <trkpt lat="43.00809" lon="-0.66368">
        <ele>1064</ele>
        <time>2017-02-11T09:31:33Z</time>
      </trkpt>
      <trkpt lat="43.00809" lon="-0.66368">
        <ele>1064</ele>
        <time>2017-02-11T09:32:13Z</time>
      </trkpt>
      <trkpt lat="43.00812" lon="-0.66365">
        <ele>1064</ele>
        <time>2017-02-11T09:32:13Z</time>
      </trkpt>
      <trkpt lat="43.00817" lon="-0.66361">
        <ele>1064</ele>
        <time>2017-02-11T09:32:13Z</time>
      </trkpt>
      <trkpt lat="43.00818" lon="-0.66361">
        <ele>1064</ele>
        <time>2017-02-11T09:32:13Z</time>
      </trkpt>
      <trkpt lat="43.00825" lon="-0.66358">
        <ele>1064</ele>
        <time>2017-02-11T09:32:29Z</time>
      </trkpt>
      <trkpt lat="43.00829" lon="-0.66355">
        <ele>1064</ele>
        <time>2017-02-11T09:32:29Z</time>
      </trkpt>
      <trkpt lat="43.00831" lon="-0.66355">
        <ele>1064</ele>
        <time>2017-02-11T09:32:29Z</time>
      </trkpt>
      <trkpt lat="43.00834" lon="-0.66354">
        <ele>1064</ele>
        <time>2017-02-11T09:32:29Z</time>
      </trkpt>
      <trkpt lat="43.00836" lon="-0.66352">
        <ele>1064</ele>
        <time>2017-02-11T09:32:45Z</time>
      </trkpt>
      <trkpt lat="43.00844" lon="-0.66349">
        <ele>1064</ele>
        <time>2017-02-11T09:32:45Z</time>
      </trkpt>
      <trkpt lat="43.00846" lon="-0.66349">
        <ele>1064</ele>
        <time>2017-02-11T09:32:45Z</time>
      </trkpt>
      <trkpt lat="43.00848" lon="-0.66348">
        <ele>1064</ele>
        <time>2017-02-11T09:32:45Z</time>
      </trkpt>
      <trkpt lat="43.00851" lon="-0.66348">
        <ele>1064</ele>
        <time>2017-02-11T09:33:05Z</time>
      </trkpt>
      <trkpt lat="43.00855" lon="-0.66343">
        <ele>1064</ele>
        <time>2017-02-11T09:33:05Z</time>
      </trkpt>
      <trkpt lat="43.00856" lon="-0.66343">
        <ele>1064</ele>
        <time>2017-02-11T09:33:05Z</time>
      </trkpt>
      <trkpt lat="43.00858" lon="-0.66343">
        <ele>1064</ele>
        <time>2017-02-11T09:33:05Z</time>
      </trkpt>
      <trkpt lat="43.00863" lon="-0.66344">
        <ele>1064</ele>
        <time>2017-02-11T09:33:05Z</time>
      </trkpt>
      <trkpt lat="43.00866" lon="-0.66344">
        <ele>1064</ele>
        <time>2017-02-11T09:33:29Z</time>
      </trkpt>
      <trkpt lat="43.00871" lon="-0.66342">
        <ele>1064</ele>
        <time>2017-02-11T09:33:29Z</time>
      </trkpt>
      <trkpt lat="43.00871" lon="-0.66342">
        <ele>1064</ele>
        <time>2017-02-11T09:33:29Z</time>
      </trkpt>
      <trkpt lat="43.00873" lon="-0.66342">
        <ele>1064</ele>
        <time>2017-02-11T09:33:29Z</time>
      </trkpt>
      <trkpt lat="43.00875" lon="-0.66344">
        <ele>1086</ele>
        <time>2017-02-11T09:33:29Z</time>
      </trkpt>
      <trkpt lat="43.00884" lon="-0.66341">
        <ele>1086</ele>
        <time>2017-02-11T09:33:53Z</time>
      </trkpt>
      <trkpt lat="43.00884" lon="-0.66341">
        <ele>1086</ele>
        <time>2017-02-11T09:33:53Z</time>
      </trkpt>
      <trkpt lat="43.00885" lon="-0.66342">
        <ele>1086</ele>
        <time>2017-02-11T09:33:53Z</time>
      </trkpt>
      <trkpt lat="43.00887" lon="-0.66346">
        <ele>1086</ele>
        <time>2017-02-11T09:33:53Z</time>
      </trkpt>
      <trkpt lat="43.00904" lon="-0.6635">
        <ele>1086</ele>
        <time>2017-02-11T09:33:53Z</time>
      </trkpt>
      <trkpt lat="43.00916" lon="-0.66353">
        <ele>1086</ele>
        <time>2017-02-11T09:34:09Z</time>
      </trkpt>
      <trkpt lat="43.0092" lon="-0.66352">
        <ele>1086</ele>
        <time>2017-02-11T09:34:09Z</time>
      </trkpt>
      <trkpt lat="43.00926" lon="-0.66351">
        <ele>1086</ele>
        <time>2017-02-11T09:34:09Z</time>
      </trkpt>
      <trkpt lat="43.00931" lon="-0.6635">
        <ele>1086</ele>
        <time>2017-02-11T09:34:09Z</time>
      </trkpt>
      <trkpt lat="43.00934" lon="-0.6635">
        <ele>1086</ele>
        <time>2017-02-11T09:34:25Z</time>
      </trkpt>
      <trkpt lat="43.00936" lon="-0.66349">
        <ele>1086</ele>
        <time>2017-02-11T09:34:25Z</time>
      </trkpt>
      <trkpt lat="43.00938" lon="-0.66348">
        <ele>1086</ele>
        <time>2017-02-11T09:34:25Z</time>
      </trkpt>
      <trkpt lat="43.00943" lon="-0.66343">
        <ele>1086</ele>
        <time>2017-02-11T09:34:25Z</time>
      </trkpt>
      <trkpt lat="43.00948" lon="-0.66339">
        <ele>1086</ele>
        <time>2017-02-11T09:34:41Z</time>
      </trkpt>
      <trkpt lat="43.00951" lon="-0.66336">
        <ele>1086</ele>
        <time>2017-02-11T09:34:41Z</time>
      </trkpt>
      <trkpt lat="43.00958" lon="-0.66332">
        <ele>1086</ele>
        <time>2017-02-11T09:34:41Z</time>
      </trkpt>
      <trkpt lat="43.00961" lon="-0.66327">
        <ele>1106</ele>
        <time>2017-02-11T09:34:41Z</time>
      </trkpt>
      <trkpt lat="43.00962" lon="-0.66322">
        <ele>1106</ele>
        <time>2017-02-11T09:34:57Z</time>
      </trkpt>
      <trkpt lat="43.00962" lon="-0.66316">
        <ele>1106</ele>
        <time>2017-02-11T09:34:57Z</time>
      </trkpt>
      <trkpt lat="43.00963" lon="-0.66312">
        <ele>1106</ele>
        <time>2017-02-11T09:34:57Z</time>
      </trkpt>
      <trkpt lat="43.00965" lon="-0.66309">
        <ele>1106</ele>
        <time>2017-02-11T09:34:57Z</time>
      </trkpt>
      <trkpt lat="43.00968" lon="-0.66305">
        <ele>1106</ele>
        <time>2017-02-11T09:35:13Z</time>
      </trkpt>
      <trkpt lat="43.00971" lon="-0.66302">
        <ele>1106</ele>
        <time>2017-02-11T09:35:13Z</time>
      </trkpt>
      <trkpt lat="43.00974" lon="-0.66298">
        <ele>1106</ele>
        <time>2017-02-11T09:35:13Z</time>
      </trkpt>
      <trkpt lat="43.00978" lon="-0.66295">
        <ele>1106</ele>
        <time>2017-02-11T09:35:13Z</time>
      </trkpt>
      <trkpt lat="43.00982" lon="-0.66291">
        <ele>1083</ele>
        <time>2017-02-11T09:35:29Z</time>
      </trkpt>
      <trkpt lat="43.00986" lon="-0.66288">
        <ele>1083</ele>
        <time>2017-02-11T09:35:29Z</time>
      </trkpt>
      <trkpt lat="43.00988" lon="-0.66285">
        <ele>1083</ele>
        <time>2017-02-11T09:35:29Z</time>
      </trkpt>
      <trkpt lat="43.0099" lon="-0.66283">
        <ele>1083</ele>
        <time>2017-02-11T09:35:29Z</time>
      </trkpt>
      <trkpt lat="43.00991" lon="-0.66282">
        <ele>1083</ele>
        <time>2017-02-11T09:35:45Z</time>
      </trkpt>
      <trkpt lat="43.00991" lon="-0.66281">
        <ele>1083</ele>
        <time>2017-02-11T09:35:45Z</time>
      </trkpt>
      <trkpt lat="43.00994" lon="-0.66278">
        <ele>1083</ele>
        <time>2017-02-11T09:35:45Z</time>
      </trkpt>
      <trkpt lat="43.00999" lon="-0.66275">
        <ele>1083</ele>
        <time>2017-02-11T09:35:45Z</time>
      </trkpt>
      <trkpt lat="43.01001" lon="-0.66274">
        <ele>1083</ele>
        <time>2017-02-11T09:36:01Z</time>
      </trkpt>
      <trkpt lat="43.01006" lon="-0.66269">
        <ele>1083</ele>
        <time>2017-02-11T09:36:01Z</time>
      </trkpt>
      <trkpt lat="43.01011" lon="-0.66267">
        <ele>1083</ele>
        <time>2017-02-11T09:36:01Z</time>
      </trkpt>
      <trkpt lat="43.01016" lon="-0.66267">
        <ele>1083</ele>
        <time>2017-02-11T09:36:01Z</time>
      </trkpt>
      <trkpt lat="43.01018" lon="-0.66265">
        <ele>1083</ele>
        <time>2017-02-11T09:36:21Z</time>
      </trkpt>
      <trkpt lat="43.0102" lon="-0.66265">
        <ele>1083</ele>
        <time>2017-02-11T09:36:21Z</time>
      </trkpt>
      <trkpt lat="43.01021" lon="-0.66264">
        <ele>1083</ele>
        <time>2017-02-11T09:36:21Z</time>
      </trkpt>
      <trkpt lat="43.01024" lon="-0.66267">
        <ele>1083</ele>
        <time>2017-02-11T09:36:21Z</time>
      </trkpt>
      <trkpt lat="43.01028" lon="-0.66267">
        <ele>1083</ele>
        <time>2017-02-11T09:36:21Z</time>
      </trkpt>
      <trkpt lat="43.01033" lon="-0.66265">
        <ele>1083</ele>
        <time>2017-02-11T09:36:45Z</time>
      </trkpt>
      <trkpt lat="43.01033" lon="-0.66265">
        <ele>1083</ele>
        <time>2017-02-11T09:36:45Z</time>
      </trkpt>
      <trkpt lat="43.01035" lon="-0.66265">
        <ele>1083</ele>
        <time>2017-02-11T09:36:45Z</time>
      </trkpt>
      <trkpt lat="43.0104" lon="-0.66265">
        <ele>1083</ele>
        <time>2017-02-11T09:36:45Z</time>
      </trkpt>
      <trkpt lat="43.01042" lon="-0.66264">
        <ele>1110</ele>
        <time>2017-02-11T09:36:45Z</time>
      </trkpt>
      <trkpt lat="43.01049" lon="-0.6626">
        <ele>1110</ele>
        <time>2017-02-11T09:37:05Z</time>
      </trkpt>
      <trkpt lat="43.01051" lon="-0.6626">
        <ele>1110</ele>
        <time>2017-02-11T09:37:05Z</time>
      </trkpt>
      <trkpt lat="43.01056" lon="-0.6626">
        <ele>1110</ele>
        <time>2017-02-11T09:37:05Z</time>
      </trkpt>
      <trkpt lat="43.01058" lon="-0.66259">
        <ele>1110</ele>
        <time>2017-02-11T09:37:05Z</time>
      </trkpt>
      <trkpt lat="43.01061" lon="-0.66258">
        <ele>1110</ele>
        <time>2017-02-11T09:37:05Z</time>
      </trkpt>
      <trkpt lat="43.01066" lon="-0.66252">
        <ele>1110</ele>
        <time>2017-02-11T09:37:21Z</time>
      </trkpt>
      <trkpt lat="43.0107" lon="-0.66248">
        <ele>1110</ele>
        <time>2017-02-11T09:37:21Z</time>
      </trkpt>
      <trkpt lat="43.01076" lon="-0.66243">
        <ele>1110</ele>
        <time>2017-02-11T09:37:21Z</time>
      </trkpt>
      <trkpt lat="43.01079" lon="-0.66237">
        <ele>1110</ele>
        <time>2017-02-11T09:37:21Z</time>
      </trkpt>
      <trkpt lat="43.01083" lon="-0.66233">
        <ele>1110</ele>
        <time>2017-02-11T09:37:37Z</time>
      </trkpt>
      <trkpt lat="43.01084" lon="-0.6623">
        <ele>1110</ele>
        <time>2017-02-11T09:37:37Z</time>
      </trkpt>
      <trkpt lat="43.01087" lon="-0.66226">
        <ele>1110</ele>
        <time>2017-02-11T09:37:37Z</time>
      </trkpt>
      <trkpt lat="43.01091" lon="-0.66222">
        <ele>1110</ele>
        <time>2017-02-11T09:37:37Z</time>
      </trkpt>
      <trkpt lat="43.01093" lon="-0.66218">
        <ele>1110</ele>
        <time>2017-02-11T09:37:53Z</time>
      </trkpt>
      <trkpt lat="43.01094" lon="-0.66215">
        <ele>1110</ele>
        <time>2017-02-11T09:37:53Z</time>
      </trkpt>
      <trkpt lat="43.01094" lon="-0.66213">
        <ele>1110</ele>
        <time>2017-02-11T09:37:53Z</time>
      </trkpt>
      <trkpt lat="43.01098" lon="-0.66207">
        <ele>1069</ele>
        <time>2017-02-11T09:37:53Z</time>
      </trkpt>
      <trkpt lat="43.01101" lon="-0.66203">
        <ele>1069</ele>
        <time>2017-02-11T09:38:09Z</time>
      </trkpt>
      <trkpt lat="43.01104" lon="-0.662">
        <ele>1069</ele>
        <time>2017-02-11T09:38:09Z</time>
      </trkpt>
      <trkpt lat="43.01107" lon="-0.66195">
        <ele>1069</ele>
        <time>2017-02-11T09:38:09Z</time>
      </trkpt>
      <trkpt lat="43.01107" lon="-0.66191">
        <ele>1069</ele>
        <time>2017-02-11T09:38:09Z</time>
      </trkpt>
      <trkpt lat="43.01108" lon="-0.66187">
        <ele>1069</ele>
        <time>2017-02-11T09:38:25Z</time>
      </trkpt>
      <trkpt lat="43.01109" lon="-0.66182">
        <ele>1069</ele>
        <time>2017-02-11T09:38:25Z</time>
      </trkpt>
      <trkpt lat="43.0111" lon="-0.66178">
        <ele>1069</ele>
        <time>2017-02-11T09:38:25Z</time>
      </trkpt>
      <trkpt lat="43.01112" lon="-0.66172">
        <ele>1069</ele>
        <time>2017-02-11T09:38:25Z</time>
      </trkpt>
      <trkpt lat="43.01114" lon="-0.66168">
        <ele>1069</ele>
        <time>2017-02-11T09:38:41Z</time>
      </trkpt>
      <trkpt lat="43.01117" lon="-0.66166">
        <ele>1069</ele>
        <time>2017-02-11T09:38:41Z</time>
      </trkpt>
      <trkpt lat="43.01119" lon="-0.66161">
        <ele>1069</ele>
        <time>2017-02-11T09:38:41Z</time>
      </trkpt>
      <trkpt lat="43.0112" lon="-0.66159">
        <ele>1069</ele>
        <time>2017-02-11T09:38:41Z</time>
      </trkpt>
      <trkpt lat="43.01122" lon="-0.66156">
        <ele>1069</ele>
        <time>2017-02-11T09:39:05Z</time>
      </trkpt>
      <trkpt lat="43.01124" lon="-0.66154">
        <ele>1069</ele>
        <time>2017-02-11T09:39:05Z</time>
      </trkpt>
      <trkpt lat="43.01126" lon="-0.66153">
        <ele>1067</ele>
        <time>2017-02-11T09:39:05Z</time>
      </trkpt>
      <trkpt lat="43.0113" lon="-0.66151">
        <ele>1067</ele>
        <time>2017-02-11T09:39:05Z</time>
      </trkpt>
      <trkpt lat="43.01134" lon="-0.66151">
        <ele>1067</ele>
        <time>2017-02-11T09:39:05Z</time>
      </trkpt>
      <trkpt lat="43.01137" lon="-0.66151">
        <ele>1067</ele>
        <time>2017-02-11T09:39:25Z</time>
      </trkpt>
      <trkpt lat="43.0114" lon="-0.66151">
        <ele>1067</ele>
        <time>2017-02-11T09:39:25Z</time>
      </trkpt>
      <trkpt lat="43.01144" lon="-0.66152">
        <ele>1067</ele>
        <time>2017-02-11T09:39:25Z</time>
      </trkpt>
      <trkpt lat="43.01145" lon="-0.66151">
        <ele>1067</ele>
        <time>2017-02-11T09:39:25Z</time>
      </trkpt>
      <trkpt lat="43.01149" lon="-0.6615">
        <ele>1067</ele>
        <time>2017-02-11T09:39:25Z</time>
      </trkpt>
      <trkpt lat="43.01152" lon="-0.6615">
        <ele>1067</ele>
        <time>2017-02-11T09:39:41Z</time>
      </trkpt>
      <trkpt lat="43.01157" lon="-0.66153">
        <ele>1067</ele>
        <time>2017-02-11T09:39:41Z</time>
      </trkpt>
      <trkpt lat="43.01159" lon="-0.66154">
        <ele>1067</ele>
        <time>2017-02-11T09:39:41Z</time>
      </trkpt>
      <trkpt lat="43.01161" lon="-0.66155">
        <ele>1067</ele>
        <time>2017-02-11T09:39:41Z</time>
      </trkpt>
      <trkpt lat="43.01163" lon="-0.66156">
        <ele>1067</ele>
        <time>2017-02-11T09:40:05Z</time>
      </trkpt>
      <trkpt lat="43.01164" lon="-0.66156">
        <ele>1067</ele>
        <time>2017-02-11T09:40:05Z</time>
      </trkpt>
      <trkpt lat="43.01166" lon="-0.66156">
        <ele>1067</ele>
        <time>2017-02-11T09:40:05Z</time>
      </trkpt>
      <trkpt lat="43.0117" lon="-0.66156">
        <ele>1067</ele>
        <time>2017-02-11T09:40:05Z</time>
      </trkpt>
      <trkpt lat="43.01172" lon="-0.66158">
        <ele>1067</ele>
        <time>2017-02-11T09:40:05Z</time>
      </trkpt>
      <trkpt lat="43.01174" lon="-0.66157">
        <ele>1067</ele>
        <time>2017-02-11T09:40:29Z</time>
      </trkpt>
      <trkpt lat="43.01178" lon="-0.66157">
        <ele>1067</ele>
        <time>2017-02-11T09:40:29Z</time>
      </trkpt>
      <trkpt lat="43.01179" lon="-0.66157">
        <ele>1067</ele>
        <time>2017-02-11T09:40:29Z</time>
      </trkpt>
      <trkpt lat="43.0118" lon="-0.66158">
        <ele>1067</ele>
        <time>2017-02-11T09:40:29Z</time>
      </trkpt>
      <trkpt lat="43.01182" lon="-0.66159">
        <ele>1067</ele>
        <time>2017-02-11T09:40:29Z</time>
      </trkpt>
      <trkpt lat="43.01184" lon="-0.6616">
        <ele>1067</ele>
        <time>2017-02-11T09:40:45Z</time>
      </trkpt>
      <trkpt lat="43.01189" lon="-0.66163">
        <ele>1067</ele>
        <time>2017-02-11T09:40:45Z</time>
      </trkpt>
      <trkpt lat="43.01193" lon="-0.66163">
        <ele>1067</ele>
        <time>2017-02-11T09:40:45Z</time>
      </trkpt>
      <trkpt lat="43.01198" lon="-0.66163">
        <ele>1067</ele>
        <time>2017-02-11T09:40:45Z</time>
      </trkpt>
      <trkpt lat="43.01201" lon="-0.66164">
        <ele>1067</ele>
        <time>2017-02-11T09:41:01Z</time>
      </trkpt>
      <trkpt lat="43.01204" lon="-0.66165">
        <ele>1067</ele>
        <time>2017-02-11T09:41:01Z</time>
      </trkpt>
      <trkpt lat="43.01208" lon="-0.66166">
        <ele>1067</ele>
        <time>2017-02-11T09:41:01Z</time>
      </trkpt>
      <trkpt lat="43.01213" lon="-0.66167">
        <ele>1087</ele>
        <time>2017-02-11T09:41:01Z</time>
      </trkpt>
      <trkpt lat="43.01214" lon="-0.66167">
        <ele>1087</ele>
        <time>2017-02-11T09:41:21Z</time>
      </trkpt>
      <trkpt lat="43.01218" lon="-0.66169">
        <ele>1087</ele>
        <time>2017-02-11T09:41:21Z</time>
      </trkpt>
      <trkpt lat="43.01221" lon="-0.66168">
        <ele>1087</ele>
        <time>2017-02-11T09:41:21Z</time>
      </trkpt>
      <trkpt lat="43.01221" lon="-0.66168">
        <ele>1087</ele>
        <time>2017-02-11T09:41:21Z</time>
      </trkpt>
      <trkpt lat="43.01226" lon="-0.66168">
        <ele>1087</ele>
        <time>2017-02-11T09:41:21Z</time>
      </trkpt>
      <trkpt lat="43.01241" lon="-0.66169">
        <ele>1087</ele>
        <time>2017-02-11T09:42:01Z</time>
      </trkpt>
      <trkpt lat="43.01243" lon="-0.66171">
        <ele>1087</ele>
        <time>2017-02-11T09:42:01Z</time>
      </trkpt>
      <trkpt lat="43.01243" lon="-0.66171">
        <ele>1087</ele>
        <time>2017-02-11T09:42:01Z</time>
      </trkpt>
      <trkpt lat="43.01243" lon="-0.66171">
        <ele>1087</ele>
        <time>2017-02-11T09:42:01Z</time>
      </trkpt>
      <trkpt lat="43.01247" lon="-0.66172">
        <ele>1087</ele>
        <time>2017-02-11T09:42:01Z</time>
      </trkpt>
      <trkpt lat="43.01253" lon="-0.66174">
        <ele>1087</ele>
        <time>2017-02-11T09:42:17Z</time>
      </trkpt>
      <trkpt lat="43.01255" lon="-0.66177">
        <ele>1087</ele>
        <time>2017-02-11T09:42:17Z</time>
      </trkpt>
      <trkpt lat="43.0126" lon="-0.66183">
        <ele>1087</ele>
        <time>2017-02-11T09:42:17Z</time>
      </trkpt>
      <trkpt lat="43.01263" lon="-0.66185">
        <ele>1087</ele>
        <time>2017-02-11T09:42:17Z</time>
      </trkpt>
      <trkpt lat="43.01263" lon="-0.66188">
        <ele>1087</ele>
        <time>2017-02-11T09:42:37Z</time>
      </trkpt>
      <trkpt lat="43.01264" lon="-0.66189">
        <ele>1087</ele>
        <time>2017-02-11T09:42:37Z</time>
      </trkpt>
      <trkpt lat="43.01268" lon="-0.6619">
        <ele>1087</ele>
        <time>2017-02-11T09:42:37Z</time>
      </trkpt>
      <trkpt lat="43.0127" lon="-0.66192">
        <ele>1087</ele>
        <time>2017-02-11T09:42:37Z</time>
      </trkpt>
      <trkpt lat="43.01272" lon="-0.66193">
        <ele>1087</ele>
        <time>2017-02-11T09:42:37Z</time>
      </trkpt>
      <trkpt lat="43.01276" lon="-0.66194">
        <ele>1087</ele>
        <time>2017-02-11T09:42:57Z</time>
      </trkpt>
      <trkpt lat="43.01278" lon="-0.66194">
        <ele>1087</ele>
        <time>2017-02-11T09:42:57Z</time>
      </trkpt>
      <trkpt lat="43.01281" lon="-0.66195">
        <ele>1087</ele>
        <time>2017-02-11T09:42:57Z</time>
      </trkpt>
      <trkpt lat="43.01282" lon="-0.66197">
        <ele>1087</ele>
        <time>2017-02-11T09:42:57Z</time>
      </trkpt>
      <trkpt lat="43.01288" lon="-0.66203">
        <ele>1087</ele>
        <time>2017-02-11T09:42:57Z</time>
      </trkpt>
      <trkpt lat="43.01288" lon="-0.66203">
        <ele>1087</ele>
        <time>2017-02-11T09:43:13Z</time>
      </trkpt>
      <trkpt lat="43.01294" lon="-0.66209">
        <ele>1131</ele>
        <time>2017-02-11T09:43:13Z</time>
      </trkpt>
      <trkpt lat="43.013" lon="-0.66214">
        <ele>1131</ele>
        <time>2017-02-11T09:43:13Z</time>
      </trkpt>
      <trkpt lat="43.01303" lon="-0.66216">
        <ele>1131</ele>
        <time>2017-02-11T09:43:13Z</time>
      </trkpt>
      <trkpt lat="43.0131" lon="-0.66224">
        <ele>1131</ele>
        <time>2017-02-11T09:43:53Z</time>
      </trkpt>
      <trkpt lat="43.01311" lon="-0.66225">
        <ele>1131</ele>
        <time>2017-02-11T09:43:53Z</time>
      </trkpt>
      <trkpt lat="43.01311" lon="-0.66225">
        <ele>1131</ele>
        <time>2017-02-11T09:43:53Z</time>
      </trkpt>
      <trkpt lat="43.01312" lon="-0.66224">
        <ele>1131</ele>
        <time>2017-02-11T09:43:53Z</time>
      </trkpt>
      <trkpt lat="43.01314" lon="-0.66228">
        <ele>1131</ele>
        <time>2017-02-11T09:43:53Z</time>
      </trkpt>
      <trkpt lat="43.01323" lon="-0.66231">
        <ele>1131</ele>
        <time>2017-02-11T09:44:13Z</time>
      </trkpt>
      <trkpt lat="43.01324" lon="-0.66232">
        <ele>1131</ele>
        <time>2017-02-11T09:44:13Z</time>
      </trkpt>
      <trkpt lat="43.01324" lon="-0.66232">
        <ele>1131</ele>
        <time>2017-02-11T09:44:13Z</time>
      </trkpt>
      <trkpt lat="43.0133" lon="-0.66235">
        <ele>1131</ele>
        <time>2017-02-11T09:44:13Z</time>
      </trkpt>
      <trkpt lat="43.01332" lon="-0.66236">
        <ele>1131</ele>
        <time>2017-02-11T09:44:13Z</time>
      </trkpt>
      <trkpt lat="43.01334" lon="-0.66237">
        <ele>1131</ele>
        <time>2017-02-11T09:44:37Z</time>
      </trkpt>
      <trkpt lat="43.01336" lon="-0.66238">
        <ele>1131</ele>
        <time>2017-02-11T09:44:37Z</time>
      </trkpt>
      <trkpt lat="43.01336" lon="-0.66238">
        <ele>1131</ele>
        <time>2017-02-11T09:44:37Z</time>
      </trkpt>
      <trkpt lat="43.01338" lon="-0.66239">
        <ele>1131</ele>
        <time>2017-02-11T09:44:37Z</time>
      </trkpt>
      <trkpt lat="43.01342" lon="-0.66242">
        <ele>1131</ele>
        <time>2017-02-11T09:44:37Z</time>
      </trkpt>
      <trkpt lat="43.01354" lon="-0.66254">
        <ele>1131</ele>
        <time>2017-02-11T09:45:17Z</time>
      </trkpt>
      <trkpt lat="43.01359" lon="-0.66261">
        <ele>1131</ele>
        <time>2017-02-11T09:45:17Z</time>
      </trkpt>
      <trkpt lat="43.0136" lon="-0.66263">
        <ele>1131</ele>
        <time>2017-02-11T09:45:17Z</time>
      </trkpt>
      <trkpt lat="43.0136" lon="-0.66263">
        <ele>1131</ele>
        <time>2017-02-11T09:45:17Z</time>
      </trkpt>
      <trkpt lat="43.0136" lon="-0.66263">
        <ele>1131</ele>
        <time>2017-02-11T09:45:17Z</time>
      </trkpt>
      <trkpt lat="43.0137" lon="-0.66262">
        <ele>1131</ele>
        <time>2017-02-11T09:45:53Z</time>
      </trkpt>
      <trkpt lat="43.01373" lon="-0.66261">
        <ele>1131</ele>
        <time>2017-02-11T09:45:53Z</time>
      </trkpt>
      <trkpt lat="43.01374" lon="-0.66261">
        <ele>1131</ele>
        <time>2017-02-11T09:45:53Z</time>
      </trkpt>
      <trkpt lat="43.01374" lon="-0.66261">
        <ele>1131</ele>
        <time>2017-02-11T09:45:53Z</time>
      </trkpt>
      <trkpt lat="43.01375" lon="-0.66261">
        <ele>1156</ele>
        <time>2017-02-11T09:45:53Z</time>
      </trkpt>
      <trkpt lat="43.01381" lon="-0.66259">
        <ele>1156</ele>
        <time>2017-02-11T09:46:09Z</time>
      </trkpt>
      <trkpt lat="43.01388" lon="-0.66259">
        <ele>1156</ele>
        <time>2017-02-11T09:46:09Z</time>
      </trkpt>
      <trkpt lat="43.01395" lon="-0.66257">
        <ele>1156</ele>
        <time>2017-02-11T09:46:09Z</time>
      </trkpt>
      <trkpt lat="43.01398" lon="-0.66256">
        <ele>1156</ele>
        <time>2017-02-11T09:46:09Z</time>
      </trkpt>
      <trkpt lat="43.01401" lon="-0.66255">
        <ele>1156</ele>
        <time>2017-02-11T09:46:25Z</time>
      </trkpt>
      <trkpt lat="43.01402" lon="-0.66255">
        <ele>1156</ele>
        <time>2017-02-11T09:46:25Z</time>
      </trkpt>
      <trkpt lat="43.01406" lon="-0.66252">
        <ele>1156</ele>
        <time>2017-02-11T09:46:25Z</time>
      </trkpt>
      <trkpt lat="43.01412" lon="-0.66251">
        <ele>1156</ele>
        <time>2017-02-11T09:46:25Z</time>
      </trkpt>
      <trkpt lat="43.01416" lon="-0.66251">
        <ele>1156</ele>
        <time>2017-02-11T09:46:45Z</time>
      </trkpt>
      <trkpt lat="43.01417" lon="-0.6625">
        <ele>1156</ele>
        <time>2017-02-11T09:46:45Z</time>
      </trkpt>
      <trkpt lat="43.01421" lon="-0.6625">
        <ele>1156</ele>
        <time>2017-02-11T09:46:45Z</time>
      </trkpt>
      <trkpt lat="43.01423" lon="-0.6625">
        <ele>1156</ele>
        <time>2017-02-11T09:46:45Z</time>
      </trkpt>
      <trkpt lat="43.01425" lon="-0.6625">
        <ele>1156</ele>
        <time>2017-02-11T09:46:45Z</time>
      </trkpt>
      <trkpt lat="43.01431" lon="-0.66252">
        <ele>1156</ele>
        <time>2017-02-11T09:47:09Z</time>
      </trkpt>
      <trkpt lat="43.01432" lon="-0.66252">
        <ele>1156</ele>
        <time>2017-02-11T09:47:09Z</time>
      </trkpt>
      <trkpt lat="43.01435" lon="-0.66253">
        <ele>1156</ele>
        <time>2017-02-11T09:47:09Z</time>
      </trkpt>
      <trkpt lat="43.01435" lon="-0.66253">
        <ele>1156</ele>
        <time>2017-02-11T09:47:09Z</time>
      </trkpt>
      <trkpt lat="43.0144" lon="-0.66253">
        <ele>1156</ele>
        <time>2017-02-11T09:47:09Z</time>
      </trkpt>
      <trkpt lat="43.01448" lon="-0.66254">
        <ele>1156</ele>
        <time>2017-02-11T09:47:33Z</time>
      </trkpt>
      <trkpt lat="43.01451" lon="-0.66253">
        <ele>1156</ele>
        <time>2017-02-11T09:47:33Z</time>
      </trkpt>
      <trkpt lat="43.01452" lon="-0.66253">
        <ele>1156</ele>
        <time>2017-02-11T09:47:33Z</time>
      </trkpt>
      <trkpt lat="43.01452" lon="-0.66253">
        <ele>1156</ele>
        <time>2017-02-11T09:47:33Z</time>
      </trkpt>
      <trkpt lat="43.01455" lon="-0.66252">
        <ele>1156</ele>
        <time>2017-02-11T09:47:33Z</time>
      </trkpt>
      <trkpt lat="43.01459" lon="-0.6625">
        <ele>1190</ele>
        <time>2017-02-11T09:47:49Z</time>
      </trkpt>
      <trkpt lat="43.01462" lon="-0.66246">
        <ele>1190</ele>
        <time>2017-02-11T09:47:49Z</time>
      </trkpt>
      <trkpt lat="43.01465" lon="-0.66242">
        <ele>1190</ele>
        <time>2017-02-11T09:47:49Z</time>
      </trkpt>
      <trkpt lat="43.01467" lon="-0.66238">
        <ele>1190</ele>
        <time>2017-02-11T09:47:49Z</time>
      </trkpt>
      <trkpt lat="43.0147" lon="-0.66232">
        <ele>1190</ele>
        <time>2017-02-11T09:51:57Z</time>
      </trkpt>
      <trkpt lat="43.01471" lon="-0.66231">
        <ele>1190</ele>
        <time>2017-02-11T09:51:57Z</time>
      </trkpt>
      <trkpt lat="43.01471" lon="-0.66231">
        <ele>1190</ele>
        <time>2017-02-11T09:51:57Z</time>
      </trkpt>
      <trkpt lat="43.01473" lon="-0.66228">
        <ele>1190</ele>
        <time>2017-02-11T09:51:57Z</time>
      </trkpt>
      <trkpt lat="43.01475" lon="-0.66225">
        <ele>1190</ele>
        <time>2017-02-11T09:51:57Z</time>
      </trkpt>
      <trkpt lat="43.01478" lon="-0.66221">
        <ele>1190</ele>
        <time>2017-02-11T09:52:21Z</time>
      </trkpt>
      <trkpt lat="43.01482" lon="-0.66219">
        <ele>1190</ele>
        <time>2017-02-11T09:52:21Z</time>
      </trkpt>
      <trkpt lat="43.01484" lon="-0.66218">
        <ele>1190</ele>
        <time>2017-02-11T09:52:21Z</time>
      </trkpt>
      <trkpt lat="43.01484" lon="-0.66218">
        <ele>1190</ele>
        <time>2017-02-11T09:52:21Z</time>
      </trkpt>
      <trkpt lat="43.01488" lon="-0.66219">
        <ele>1190</ele>
        <time>2017-02-11T09:52:21Z</time>
      </trkpt>
      <trkpt lat="43.01492" lon="-0.66221">
        <ele>1190</ele>
        <time>2017-02-11T09:52:37Z</time>
      </trkpt>
      <trkpt lat="43.01495" lon="-0.66222">
        <ele>1190</ele>
        <time>2017-02-11T09:52:37Z</time>
      </trkpt>
      <trkpt lat="43.01498" lon="-0.66223">
        <ele>1190</ele>
        <time>2017-02-11T09:52:37Z</time>
      </trkpt>
      <trkpt lat="43.01502" lon="-0.66224">
        <ele>1190</ele>
        <time>2017-02-11T09:52:37Z</time>
      </trkpt>
      <trkpt lat="43.01506" lon="-0.66225">
        <ele>1190</ele>
        <time>2017-02-11T09:52:57Z</time>
      </trkpt>
      <trkpt lat="43.01508" lon="-0.66225">
        <ele>1190</ele>
        <time>2017-02-11T09:52:57Z</time>
      </trkpt>
      <trkpt lat="43.0151" lon="-0.66226">
        <ele>1190</ele>
        <time>2017-02-11T09:52:57Z</time>
      </trkpt>
      <trkpt lat="43.01513" lon="-0.66226">
        <ele>1190</ele>
        <time>2017-02-11T09:52:57Z</time>
      </trkpt>
      <trkpt lat="43.01516" lon="-0.66228">
        <ele>1190</ele>
        <time>2017-02-11T09:52:57Z</time>
      </trkpt>
      <trkpt lat="43.01518" lon="-0.66229">
        <ele>1190</ele>
        <time>2017-02-11T09:53:13Z</time>
      </trkpt>
      <trkpt lat="43.01522" lon="-0.6623">
        <ele>1190</ele>
        <time>2017-02-11T09:53:13Z</time>
      </trkpt>
      <trkpt lat="43.01524" lon="-0.66232">
        <ele>1190</ele>
        <time>2017-02-11T09:53:13Z</time>
      </trkpt>
      <trkpt lat="43.01528" lon="-0.66232">
        <ele>1190</ele>
        <time>2017-02-11T09:53:13Z</time>
      </trkpt>
      <trkpt lat="43.01531" lon="-0.66231">
        <ele>1190</ele>
        <time>2017-02-11T09:53:33Z</time>
      </trkpt>
      <trkpt lat="43.01533" lon="-0.66232">
        <ele>1190</ele>
        <time>2017-02-11T09:53:33Z</time>
      </trkpt>
      <trkpt lat="43.01535" lon="-0.66234">
        <ele>1190</ele>
        <time>2017-02-11T09:53:33Z</time>
      </trkpt>
      <trkpt lat="43.01538" lon="-0.66236">
        <ele>1190</ele>
        <time>2017-02-11T09:53:33Z</time>
      </trkpt>
      <trkpt lat="43.01541" lon="-0.66239">
        <ele>1190</ele>
        <time>2017-02-11T09:53:33Z</time>
      </trkpt>
      <trkpt lat="43.01544" lon="-0.66241">
        <ele>1232</ele>
        <time>2017-02-11T09:53:49Z</time>
      </trkpt>
      <trkpt lat="43.01546" lon="-0.66243">
        <ele>1232</ele>
        <time>2017-02-11T09:53:49Z</time>
      </trkpt>
      <trkpt lat="43.01549" lon="-0.66246">
        <ele>1232</ele>
        <time>2017-02-11T09:53:49Z</time>
      </trkpt>
      <trkpt lat="43.01553" lon="-0.66248">
        <ele>1232</ele>
        <time>2017-02-11T09:53:49Z</time>
      </trkpt>
      <trkpt lat="43.01557" lon="-0.66252">
        <ele>1232</ele>
        <time>2017-02-11T09:54:17Z</time>
      </trkpt>
      <trkpt lat="43.01558" lon="-0.66253">
        <ele>1232</ele>
        <time>2017-02-11T09:54:17Z</time>
      </trkpt>
      <trkpt lat="43.01559" lon="-0.66255">
        <ele>1232</ele>
        <time>2017-02-11T09:54:17Z</time>
      </trkpt>
      <trkpt lat="43.01561" lon="-0.66256">
        <ele>1232</ele>
        <time>2017-02-11T09:54:17Z</time>
      </trkpt>
      <trkpt lat="43.01564" lon="-0.66258">
        <ele>1232</ele>
        <time>2017-02-11T09:54:17Z</time>
      </trkpt>
      <trkpt lat="43.01568" lon="-0.66264">
        <ele>1232</ele>
        <time>2017-02-11T09:54:41Z</time>
      </trkpt>
      <trkpt lat="43.0157" lon="-0.66266">
        <ele>1232</ele>
        <time>2017-02-11T09:54:41Z</time>
      </trkpt>
      <trkpt lat="43.01571" lon="-0.66267">
        <ele>1232</ele>
        <time>2017-02-11T09:54:41Z</time>
      </trkpt>
      <trkpt lat="43.01573" lon="-0.66267">
        <ele>1232</ele>
        <time>2017-02-11T09:54:41Z</time>
      </trkpt>
      <trkpt lat="43.01576" lon="-0.66269">
        <ele>1232</ele>
        <time>2017-02-11T09:54:41Z</time>
      </trkpt>
      <trkpt lat="43.01579" lon="-0.66271">
        <ele>1232</ele>
        <time>2017-02-11T09:55:01Z</time>
      </trkpt>
      <trkpt lat="43.01582" lon="-0.66273">
        <ele>1232</ele>
        <time>2017-02-11T09:55:01Z</time>
      </trkpt>
      <trkpt lat="43.01583" lon="-0.66276">
        <ele>1232</ele>
        <time>2017-02-11T09:55:01Z</time>
      </trkpt>
      <trkpt lat="43.01585" lon="-0.66278">
        <ele>1232</ele>
        <time>2017-02-11T09:55:01Z</time>
      </trkpt>
      <trkpt lat="43.01587" lon="-0.66281">
        <ele>1232</ele>
        <time>2017-02-11T09:55:01Z</time>
      </trkpt>
      <trkpt lat="43.01589" lon="-0.66283">
        <ele>1232</ele>
        <time>2017-02-11T09:55:17Z</time>
      </trkpt>
      <trkpt lat="43.01591" lon="-0.66287">
        <ele>1232</ele>
        <time>2017-02-11T09:55:17Z</time>
      </trkpt>
      <trkpt lat="43.01593" lon="-0.6629">
        <ele>1232</ele>
        <time>2017-02-11T09:55:17Z</time>
      </trkpt>
      <trkpt lat="43.01596" lon="-0.66292">
        <ele>1218</ele>
        <time>2017-02-11T09:55:17Z</time>
      </trkpt>
      <trkpt lat="43.01598" lon="-0.66295">
        <ele>1218</ele>
        <time>2017-02-11T09:55:33Z</time>
      </trkpt>
      <trkpt lat="43.01602" lon="-0.66299">
        <ele>1218</ele>
        <time>2017-02-11T09:55:33Z</time>
      </trkpt>
      <trkpt lat="43.01603" lon="-0.66301">
        <ele>1218</ele>
        <time>2017-02-11T09:55:33Z</time>
      </trkpt>
      <trkpt lat="43.01605" lon="-0.66303">
        <ele>1218</ele>
        <time>2017-02-11T09:55:33Z</time>
      </trkpt>
      <trkpt lat="43.0161" lon="-0.66309">
        <ele>1218</ele>
        <time>2017-02-11T09:56:05Z</time>
      </trkpt>
      <trkpt lat="43.01611" lon="-0.66309">
        <ele>1218</ele>
        <time>2017-02-11T09:56:05Z</time>
      </trkpt>
      <trkpt lat="43.01612" lon="-0.6631">
        <ele>1218</ele>
        <time>2017-02-11T09:56:05Z</time>
      </trkpt>
      <trkpt lat="43.01613" lon="-0.66312">
        <ele>1218</ele>
        <time>2017-02-11T09:56:05Z</time>
      </trkpt>
      <trkpt lat="43.01615" lon="-0.66314">
        <ele>1218</ele>
        <time>2017-02-11T09:56:05Z</time>
      </trkpt>
      <trkpt lat="43.01618" lon="-0.66317">
        <ele>1218</ele>
        <time>2017-02-11T09:56:21Z</time>
      </trkpt>
      <trkpt lat="43.01621" lon="-0.66319">
        <ele>1218</ele>
        <time>2017-02-11T09:56:21Z</time>
      </trkpt>
      <trkpt lat="43.01624" lon="-0.66321">
        <ele>1218</ele>
        <time>2017-02-11T09:56:21Z</time>
      </trkpt>
      <trkpt lat="43.01626" lon="-0.66324">
        <ele>1255</ele>
        <time>2017-02-11T09:56:21Z</time>
      </trkpt>
      <trkpt lat="43.01628" lon="-0.66325">
        <ele>1255</ele>
        <time>2017-02-11T09:56:37Z</time>
      </trkpt>
      <trkpt lat="43.01632" lon="-0.66327">
        <ele>1255</ele>
        <time>2017-02-11T09:56:37Z</time>
      </trkpt>
      <trkpt lat="43.01635" lon="-0.66327">
        <ele>1255</ele>
        <time>2017-02-11T09:56:37Z</time>
      </trkpt>
      <trkpt lat="43.01637" lon="-0.66329">
        <ele>1255</ele>
        <time>2017-02-11T09:56:37Z</time>
      </trkpt>
      <trkpt lat="43.01639" lon="-0.66331">
        <ele>1255</ele>
        <time>2017-02-11T09:56:57Z</time>
      </trkpt>
      <trkpt lat="43.01641" lon="-0.66334">
        <ele>1255</ele>
        <time>2017-02-11T09:56:57Z</time>
      </trkpt>
      <trkpt lat="43.01642" lon="-0.66336">
        <ele>1255</ele>
        <time>2017-02-11T09:56:57Z</time>
      </trkpt>
      <trkpt lat="43.01646" lon="-0.66339">
        <ele>1255</ele>
        <time>2017-02-11T09:56:57Z</time>
      </trkpt>
      <trkpt lat="43.01648" lon="-0.66341">
        <ele>1255</ele>
        <time>2017-02-11T09:56:57Z</time>
      </trkpt>
      <trkpt lat="43.0165" lon="-0.66342">
        <ele>1255</ele>
        <time>2017-02-11T09:57:17Z</time>
      </trkpt>
      <trkpt lat="43.01652" lon="-0.66346">
        <ele>1255</ele>
        <time>2017-02-11T09:57:17Z</time>
      </trkpt>
      <trkpt lat="43.01654" lon="-0.66348">
        <ele>1255</ele>
        <time>2017-02-11T09:57:17Z</time>
      </trkpt>
      <trkpt lat="43.01656" lon="-0.66349">
        <ele>1255</ele>
        <time>2017-02-11T09:57:17Z</time>
      </trkpt>
      <trkpt lat="43.01659" lon="-0.66352">
        <ele>1255</ele>
        <time>2017-02-11T09:57:17Z</time>
      </trkpt>
      <trkpt lat="43.01661" lon="-0.66354">
        <ele>1255</ele>
        <time>2017-02-11T09:57:37Z</time>
      </trkpt>
      <trkpt lat="43.01662" lon="-0.66356">
        <ele>1255</ele>
        <time>2017-02-11T09:57:37Z</time>
      </trkpt>
      <trkpt lat="43.01663" lon="-0.66357">
        <ele>1255</ele>
        <time>2017-02-11T09:57:37Z</time>
      </trkpt>
      <trkpt lat="43.01666" lon="-0.66361">
        <ele>1255</ele>
        <time>2017-02-11T09:57:37Z</time>
      </trkpt>
      <trkpt lat="43.01668" lon="-0.66363">
        <ele>1255</ele>
        <time>2017-02-11T09:57:37Z</time>
      </trkpt>
      <trkpt lat="43.01672" lon="-0.66367">
        <ele>1255</ele>
        <time>2017-02-11T09:57:53Z</time>
      </trkpt>
      <trkpt lat="43.01675" lon="-0.6637">
        <ele>1255</ele>
        <time>2017-02-11T09:57:53Z</time>
      </trkpt>
      <trkpt lat="43.0168" lon="-0.66373">
        <ele>1255</ele>
        <time>2017-02-11T09:57:53Z</time>
      </trkpt>
      <trkpt lat="43.01682" lon="-0.66375">
        <ele>1255</ele>
        <time>2017-02-11T09:57:53Z</time>
      </trkpt>
      <trkpt lat="43.01683" lon="-0.66375">
        <ele>1255</ele>
        <time>2017-02-11T09:58:09Z</time>
      </trkpt>
      <trkpt lat="43.01687" lon="-0.66377">
        <ele>1233</ele>
        <time>2017-02-11T09:58:09Z</time>
      </trkpt>
      <trkpt lat="43.01689" lon="-0.66379">
        <ele>1233</ele>
        <time>2017-02-11T09:58:09Z</time>
      </trkpt>
      <trkpt lat="43.01692" lon="-0.66383">
        <ele>1233</ele>
        <time>2017-02-11T09:58:09Z</time>
      </trkpt>
      <trkpt lat="43.01694" lon="-0.66385">
        <ele>1233</ele>
        <time>2017-02-11T09:58:25Z</time>
      </trkpt>
      <trkpt lat="43.01697" lon="-0.66387">
        <ele>1233</ele>
        <time>2017-02-11T09:58:25Z</time>
      </trkpt>
      <trkpt lat="43.017" lon="-0.6639">
        <ele>1233</ele>
        <time>2017-02-11T09:58:25Z</time>
      </trkpt>
      <trkpt lat="43.01702" lon="-0.66393">
        <ele>1233</ele>
        <time>2017-02-11T09:58:25Z</time>
      </trkpt>
      <trkpt lat="43.01704" lon="-0.66394">
        <ele>1233</ele>
        <time>2017-02-11T09:58:45Z</time>
      </trkpt>
      <trkpt lat="43.01707" lon="-0.66396">
        <ele>1233</ele>
        <time>2017-02-11T09:58:45Z</time>
      </trkpt>
      <trkpt lat="43.0171" lon="-0.66398">
        <ele>1256</ele>
        <time>2017-02-11T09:58:45Z</time>
      </trkpt>
      <trkpt lat="43.01712" lon="-0.66399">
        <ele>1256</ele>
        <time>2017-02-11T09:58:45Z</time>
      </trkpt>
      <trkpt lat="43.01715" lon="-0.66401">
        <ele>1256</ele>
        <time>2017-02-11T09:58:45Z</time>
      </trkpt>
      <trkpt lat="43.01718" lon="-0.66402">
        <ele>1256</ele>
        <time>2017-02-11T09:59:01Z</time>
      </trkpt>
      <trkpt lat="43.01721" lon="-0.66404">
        <ele>1256</ele>
        <time>2017-02-11T09:59:01Z</time>
      </trkpt>
      <trkpt lat="43.01723" lon="-0.66405">
        <ele>1256</ele>
        <time>2017-02-11T09:59:01Z</time>
      </trkpt>
      <trkpt lat="43.01727" lon="-0.66405">
        <ele>1256</ele>
        <time>2017-02-11T09:59:01Z</time>
      </trkpt>
      <trkpt lat="43.01728" lon="-0.66406">
        <ele>1256</ele>
        <time>2017-02-11T09:59:21Z</time>
      </trkpt>
      <trkpt lat="43.0173" lon="-0.66407">
        <ele>1256</ele>
        <time>2017-02-11T09:59:21Z</time>
      </trkpt>
      <trkpt lat="43.01732" lon="-0.66408">
        <ele>1256</ele>
        <time>2017-02-11T09:59:21Z</time>
      </trkpt>
      <trkpt lat="43.01736" lon="-0.6641">
        <ele>1256</ele>
        <time>2017-02-11T09:59:21Z</time>
      </trkpt>
      <trkpt lat="43.01739" lon="-0.66415">
        <ele>1256</ele>
        <time>2017-02-11T09:59:21Z</time>
      </trkpt>
      <trkpt lat="43.01742" lon="-0.66419">
        <ele>1256</ele>
        <time>2017-02-11T09:59:41Z</time>
      </trkpt>
      <trkpt lat="43.01745" lon="-0.66422">
        <ele>1256</ele>
        <time>2017-02-11T09:59:41Z</time>
      </trkpt>
      <trkpt lat="43.01746" lon="-0.66424">
        <ele>1256</ele>
        <time>2017-02-11T09:59:41Z</time>
      </trkpt>
      <trkpt lat="43.01748" lon="-0.66425">
        <ele>1256</ele>
        <time>2017-02-11T09:59:41Z</time>
      </trkpt>
      <trkpt lat="43.01751" lon="-0.66427">
        <ele>1256</ele>
        <time>2017-02-11T09:59:41Z</time>
      </trkpt>
      <trkpt lat="43.01754" lon="-0.66429">
        <ele>1256</ele>
        <time>2017-02-11T10:00:01Z</time>
      </trkpt>
      <trkpt lat="43.01757" lon="-0.66431">
        <ele>1256</ele>
        <time>2017-02-11T10:00:01Z</time>
      </trkpt>
      <trkpt lat="43.0176" lon="-0.66433">
        <ele>1256</ele>
        <time>2017-02-11T10:00:01Z</time>
      </trkpt>
      <trkpt lat="43.01762" lon="-0.66435">
        <ele>1256</ele>
        <time>2017-02-11T10:00:01Z</time>
      </trkpt>
      <trkpt lat="43.01763" lon="-0.66437">
        <ele>1256</ele>
        <time>2017-02-11T10:00:01Z</time>
      </trkpt>
      <trkpt lat="43.01765" lon="-0.66439">
        <ele>1256</ele>
        <time>2017-02-11T10:00:21Z</time>
      </trkpt>
      <trkpt lat="43.01767" lon="-0.6644">
        <ele>1256</ele>
        <time>2017-02-11T10:00:21Z</time>
      </trkpt>
      <trkpt lat="43.0177" lon="-0.66441">
        <ele>1256</ele>
        <time>2017-02-11T10:00:21Z</time>
      </trkpt>
      <trkpt lat="43.01774" lon="-0.66442">
        <ele>1256</ele>
        <time>2017-02-11T10:00:21Z</time>
      </trkpt>
      <trkpt lat="43.01776" lon="-0.66443">
        <ele>1256</ele>
        <time>2017-02-11T10:00:21Z</time>
      </trkpt>
      <trkpt lat="43.01779" lon="-0.66444">
        <ele>1256</ele>
        <time>2017-02-11T10:00:37Z</time>
      </trkpt>
      <trkpt lat="43.01782" lon="-0.66445">
        <ele>1256</ele>
        <time>2017-02-11T10:00:37Z</time>
      </trkpt>
      <trkpt lat="43.01784" lon="-0.66447">
        <ele>1256</ele>
        <time>2017-02-11T10:00:37Z</time>
      </trkpt>
      <trkpt lat="43.01787" lon="-0.66448">
        <ele>1256</ele>
        <time>2017-02-11T10:00:37Z</time>
      </trkpt>
      <trkpt lat="43.01791" lon="-0.6645">
        <ele>1256</ele>
        <time>2017-02-11T10:00:57Z</time>
      </trkpt>
      <trkpt lat="43.01794" lon="-0.6645">
        <ele>1261</ele>
        <time>2017-02-11T10:00:57Z</time>
      </trkpt>
      <trkpt lat="43.01797" lon="-0.66451">
        <ele>1261</ele>
        <time>2017-02-11T10:00:57Z</time>
      </trkpt>
      <trkpt lat="43.018" lon="-0.66451">
        <ele>1261</ele>
        <time>2017-02-11T10:00:57Z</time>
      </trkpt>
      <trkpt lat="43.01802" lon="-0.66452">
        <ele>1261</ele>
        <time>2017-02-11T10:00:57Z</time>
      </trkpt>
      <trkpt lat="43.01805" lon="-0.66454">
        <ele>1261</ele>
        <time>2017-02-11T10:01:17Z</time>
      </trkpt>
      <trkpt lat="43.01807" lon="-0.66454">
        <ele>1261</ele>
        <time>2017-02-11T10:01:17Z</time>
      </trkpt>
      <trkpt lat="43.01811" lon="-0.66455">
        <ele>1261</ele>
        <time>2017-02-11T10:01:17Z</time>
      </trkpt>
      <trkpt lat="43.01814" lon="-0.66455">
        <ele>1261</ele>
        <time>2017-02-11T10:01:17Z</time>
      </trkpt>
      <trkpt lat="43.01816" lon="-0.66455">
        <ele>1261</ele>
        <time>2017-02-11T10:01:17Z</time>
      </trkpt>
      <trkpt lat="43.01817" lon="-0.66455">
        <ele>1261</ele>
        <time>2017-02-11T10:01:33Z</time>
      </trkpt>
      <trkpt lat="43.01819" lon="-0.66455">
        <ele>1261</ele>
        <time>2017-02-11T10:01:33Z</time>
      </trkpt>
      <trkpt lat="43.01823" lon="-0.66454">
        <ele>1261</ele>
        <time>2017-02-11T10:01:33Z</time>
      </trkpt>
      <trkpt lat="43.01827" lon="-0.66454">
        <ele>1261</ele>
        <time>2017-02-11T10:01:33Z</time>
      </trkpt>
      <trkpt lat="43.0183" lon="-0.66454">
        <ele>1261</ele>
        <time>2017-02-11T10:01:53Z</time>
      </trkpt>
      <trkpt lat="43.01832" lon="-0.66454">
        <ele>1261</ele>
        <time>2017-02-11T10:01:53Z</time>
      </trkpt>
      <trkpt lat="43.01836" lon="-0.66452">
        <ele>1261</ele>
        <time>2017-02-11T10:01:53Z</time>
      </trkpt>
      <trkpt lat="43.01838" lon="-0.66451">
        <ele>1261</ele>
        <time>2017-02-11T10:01:53Z</time>
      </trkpt>
      <trkpt lat="43.0184" lon="-0.6645">
        <ele>1261</ele>
        <time>2017-02-11T10:01:53Z</time>
      </trkpt>
      <trkpt lat="43.01841" lon="-0.6645">
        <ele>1261</ele>
        <time>2017-02-11T10:02:13Z</time>
      </trkpt>
      <trkpt lat="43.01844" lon="-0.66448">
        <ele>1261</ele>
        <time>2017-02-11T10:02:13Z</time>
      </trkpt>
      <trkpt lat="43.01846" lon="-0.66447">
        <ele>1261</ele>
        <time>2017-02-11T10:02:13Z</time>
      </trkpt>
      <trkpt lat="43.01848" lon="-0.66445">
        <ele>1261</ele>
        <time>2017-02-11T10:02:13Z</time>
      </trkpt>
      <trkpt lat="43.01851" lon="-0.66444">
        <ele>1261</ele>
        <time>2017-02-11T10:02:13Z</time>
      </trkpt>
      <trkpt lat="43.01854" lon="-0.66442">
        <ele>1261</ele>
        <time>2017-02-11T10:02:33Z</time>
      </trkpt>
      <trkpt lat="43.01857" lon="-0.66442">
        <ele>1261</ele>
        <time>2017-02-11T10:02:33Z</time>
      </trkpt>
      <trkpt lat="43.0186" lon="-0.66442">
        <ele>1261</ele>
        <time>2017-02-11T10:02:33Z</time>
      </trkpt>
      <trkpt lat="43.01863" lon="-0.66441">
        <ele>1261</ele>
        <time>2017-02-11T10:02:33Z</time>
      </trkpt>
      <trkpt lat="43.01866" lon="-0.66441">
        <ele>1261</ele>
        <time>2017-02-11T10:02:33Z</time>
      </trkpt>
      <trkpt lat="43.0187" lon="-0.66439">
        <ele>1261</ele>
        <time>2017-02-11T10:02:57Z</time>
      </trkpt>
      <trkpt lat="43.01873" lon="-0.66437">
        <ele>1261</ele>
        <time>2017-02-11T10:02:57Z</time>
      </trkpt>
      <trkpt lat="43.01874" lon="-0.66436">
        <ele>1261</ele>
        <time>2017-02-11T10:02:57Z</time>
      </trkpt>
      <trkpt lat="43.01876" lon="-0.66436">
        <ele>1256</ele>
        <time>2017-02-11T10:02:57Z</time>
      </trkpt>
      <trkpt lat="43.01879" lon="-0.66437">
        <ele>1256</ele>
        <time>2017-02-11T10:02:57Z</time>
      </trkpt>
      <trkpt lat="43.01882" lon="-0.66437">
        <ele>1256</ele>
        <time>2017-02-11T10:03:13Z</time>
      </trkpt>
      <trkpt lat="43.01886" lon="-0.66436">
        <ele>1256</ele>
        <time>2017-02-11T10:03:13Z</time>
      </trkpt>
      <trkpt lat="43.0189" lon="-0.66433">
        <ele>1256</ele>
        <time>2017-02-11T10:03:13Z</time>
      </trkpt>
      <trkpt lat="43.01893" lon="-0.66431">
        <ele>1256</ele>
        <time>2017-02-11T10:03:13Z</time>
      </trkpt>
      <trkpt lat="43.01895" lon="-0.6643">
        <ele>1256</ele>
        <time>2017-02-11T10:03:29Z</time>
      </trkpt>
      <trkpt lat="43.01899" lon="-0.66431">
        <ele>1256</ele>
        <time>2017-02-11T10:03:29Z</time>
      </trkpt>
      <trkpt lat="43.01904" lon="-0.66431">
        <ele>1256</ele>
        <time>2017-02-11T10:03:29Z</time>
      </trkpt>
      <trkpt lat="43.01906" lon="-0.6643">
        <ele>1256</ele>
        <time>2017-02-11T10:03:29Z</time>
      </trkpt>
      <trkpt lat="43.01908" lon="-0.6643">
        <ele>1256</ele>
        <time>2017-02-11T10:03:45Z</time>
      </trkpt>
      <trkpt lat="43.01909" lon="-0.6643">
        <ele>1256</ele>
        <time>2017-02-11T10:03:45Z</time>
      </trkpt>
      <trkpt lat="43.01914" lon="-0.66428">
        <ele>1256</ele>
        <time>2017-02-11T10:03:45Z</time>
      </trkpt>
      <trkpt lat="43.01918" lon="-0.66425">
        <ele>1256</ele>
        <time>2017-02-11T10:03:45Z</time>
      </trkpt>
      <trkpt lat="43.01921" lon="-0.66423">
        <ele>1256</ele>
        <time>2017-02-11T10:04:05Z</time>
      </trkpt>
      <trkpt lat="43.01922" lon="-0.66423">
        <ele>1256</ele>
        <time>2017-02-11T10:04:05Z</time>
      </trkpt>
      <trkpt lat="43.01924" lon="-0.66421">
        <ele>1256</ele>
        <time>2017-02-11T10:04:05Z</time>
      </trkpt>
      <trkpt lat="43.01926" lon="-0.6642">
        <ele>1256</ele>
        <time>2017-02-11T10:04:05Z</time>
      </trkpt>
      <trkpt lat="43.01929" lon="-0.66417">
        <ele>1256</ele>
        <time>2017-02-11T10:04:05Z</time>
      </trkpt>
      <trkpt lat="43.01933" lon="-0.66413">
        <ele>1256</ele>
        <time>2017-02-11T10:04:25Z</time>
      </trkpt>
      <trkpt lat="43.01935" lon="-0.66409">
        <ele>1256</ele>
        <time>2017-02-11T10:04:25Z</time>
      </trkpt>
      <trkpt lat="43.01937" lon="-0.66408">
        <ele>1256</ele>
        <time>2017-02-11T10:04:25Z</time>
      </trkpt>
      <trkpt lat="43.0194" lon="-0.66406">
        <ele>1256</ele>
        <time>2017-02-11T10:04:25Z</time>
      </trkpt>
      <trkpt lat="43.01943" lon="-0.66404">
        <ele>1256</ele>
        <time>2017-02-11T10:04:25Z</time>
      </trkpt>
      <trkpt lat="43.01945" lon="-0.66403">
        <ele>1256</ele>
        <time>2017-02-11T10:04:45Z</time>
      </trkpt>
      <trkpt lat="43.01947" lon="-0.66401">
        <ele>1256</ele>
        <time>2017-02-11T10:04:45Z</time>
      </trkpt>
      <trkpt lat="43.0195" lon="-0.664">
        <ele>1256</ele>
        <time>2017-02-11T10:04:45Z</time>
      </trkpt>
      <trkpt lat="43.01952" lon="-0.66397">
        <ele>1256</ele>
        <time>2017-02-11T10:04:45Z</time>
      </trkpt>
      <trkpt lat="43.01953" lon="-0.66395">
        <ele>1256</ele>
        <time>2017-02-11T10:04:45Z</time>
      </trkpt>
      <trkpt lat="43.01958" lon="-0.66394">
        <ele>1256</ele>
        <time>2017-02-11T10:05:01Z</time>
      </trkpt>
      <trkpt lat="43.01962" lon="-0.66393">
        <ele>1281</ele>
        <time>2017-02-11T10:05:01Z</time>
      </trkpt>
      <trkpt lat="43.01965" lon="-0.6639">
        <ele>1281</ele>
        <time>2017-02-11T10:05:01Z</time>
      </trkpt>
      <trkpt lat="43.01967" lon="-0.6639">
        <ele>1281</ele>
        <time>2017-02-11T10:05:01Z</time>
      </trkpt>
      <trkpt lat="43.0197" lon="-0.66388">
        <ele>1281</ele>
        <time>2017-02-11T10:05:17Z</time>
      </trkpt>
      <trkpt lat="43.01973" lon="-0.66384">
        <ele>1281</ele>
        <time>2017-02-11T10:05:17Z</time>
      </trkpt>
      <trkpt lat="43.01976" lon="-0.66382">
        <ele>1281</ele>
        <time>2017-02-11T10:05:17Z</time>
      </trkpt>
      <trkpt lat="43.01979" lon="-0.66381">
        <ele>1281</ele>
        <time>2017-02-11T10:05:17Z</time>
      </trkpt>
      <trkpt lat="43.01981" lon="-0.66379">
        <ele>1281</ele>
        <time>2017-02-11T10:05:37Z</time>
      </trkpt>
      <trkpt lat="43.01984" lon="-0.66377">
        <ele>1281</ele>
        <time>2017-02-11T10:05:37Z</time>
      </trkpt>
      <trkpt lat="43.01985" lon="-0.66376">
        <ele>1281</ele>
        <time>2017-02-11T10:05:37Z</time>
      </trkpt>
      <trkpt lat="43.01986" lon="-0.66374">
        <ele>1304</ele>
        <time>2017-02-11T10:05:37Z</time>
      </trkpt>
      <trkpt lat="43.01989" lon="-0.66372">
        <ele>1304</ele>
        <time>2017-02-11T10:05:37Z</time>
      </trkpt>
      <trkpt lat="43.01991" lon="-0.6637">
        <ele>1304</ele>
        <time>2017-02-11T10:05:57Z</time>
      </trkpt>
      <trkpt lat="43.01993" lon="-0.66367">
        <ele>1304</ele>
        <time>2017-02-11T10:05:57Z</time>
      </trkpt>
      <trkpt lat="43.01996" lon="-0.66364">
        <ele>1304</ele>
        <time>2017-02-11T10:05:57Z</time>
      </trkpt>
      <trkpt lat="43.01997" lon="-0.66363">
        <ele>1304</ele>
        <time>2017-02-11T10:05:57Z</time>
      </trkpt>
      <trkpt lat="43.01998" lon="-0.66361">
        <ele>1304</ele>
        <time>2017-02-11T10:05:57Z</time>
      </trkpt>
      <trkpt lat="43.01999" lon="-0.66358">
        <ele>1304</ele>
        <time>2017-02-11T10:06:17Z</time>
      </trkpt>
      <trkpt lat="43.01999" lon="-0.66356">
        <ele>1304</ele>
        <time>2017-02-11T10:06:17Z</time>
      </trkpt>
      <trkpt lat="43.02001" lon="-0.66353">
        <ele>1304</ele>
        <time>2017-02-11T10:06:17Z</time>
      </trkpt>
      <trkpt lat="43.02002" lon="-0.6635">
        <ele>1304</ele>
        <time>2017-02-11T10:06:17Z</time>
      </trkpt>
      <trkpt lat="43.02004" lon="-0.66347">
        <ele>1304</ele>
        <time>2017-02-11T10:06:17Z</time>
      </trkpt>
      <trkpt lat="43.02006" lon="-0.66343">
        <ele>1304</ele>
        <time>2017-02-11T10:06:33Z</time>
      </trkpt>
      <trkpt lat="43.02007" lon="-0.6634">
        <ele>1304</ele>
        <time>2017-02-11T10:06:33Z</time>
      </trkpt>
      <trkpt lat="43.0201" lon="-0.66337">
        <ele>1304</ele>
        <time>2017-02-11T10:06:33Z</time>
      </trkpt>
      <trkpt lat="43.02014" lon="-0.66334">
        <ele>1304</ele>
        <time>2017-02-11T10:06:33Z</time>
      </trkpt>
      <trkpt lat="43.02017" lon="-0.66331">
        <ele>1304</ele>
        <time>2017-02-11T10:06:49Z</time>
      </trkpt>
      <trkpt lat="43.02021" lon="-0.66331">
        <ele>1304</ele>
        <time>2017-02-11T10:06:49Z</time>
      </trkpt>
      <trkpt lat="43.02027" lon="-0.66331">
        <ele>1304</ele>
        <time>2017-02-11T10:06:49Z</time>
      </trkpt>
      <trkpt lat="43.02029" lon="-0.66331">
        <ele>1304</ele>
        <time>2017-02-11T10:06:49Z</time>
      </trkpt>
      <trkpt lat="43.02033" lon="-0.66332">
        <ele>1304</ele>
        <time>2017-02-11T10:07:05Z</time>
      </trkpt>
      <trkpt lat="43.02035" lon="-0.66335">
        <ele>1304</ele>
        <time>2017-02-11T10:07:05Z</time>
      </trkpt>
      <trkpt lat="43.02038" lon="-0.66337">
        <ele>1304</ele>
        <time>2017-02-11T10:07:05Z</time>
      </trkpt>
      <trkpt lat="43.02041" lon="-0.66341">
        <ele>1304</ele>
        <time>2017-02-11T10:07:05Z</time>
      </trkpt>
      <trkpt lat="43.02046" lon="-0.66352">
        <ele>1343</ele>
        <time>2017-02-11T10:07:29Z</time>
      </trkpt>
      <trkpt lat="43.02047" lon="-0.66353">
        <ele>1343</ele>
        <time>2017-02-11T10:07:29Z</time>
      </trkpt>
      <trkpt lat="43.02048" lon="-0.66353">
        <ele>1343</ele>
        <time>2017-02-11T10:07:29Z</time>
      </trkpt>
      <trkpt lat="43.02049" lon="-0.66355">
        <ele>1343</ele>
        <time>2017-02-11T10:07:29Z</time>
      </trkpt>
      <trkpt lat="43.02051" lon="-0.6636">
        <ele>1343</ele>
        <time>2017-02-11T10:07:29Z</time>
      </trkpt>
      <trkpt lat="43.02053" lon="-0.66365">
        <ele>1343</ele>
        <time>2017-02-11T10:07:45Z</time>
      </trkpt>
      <trkpt lat="43.02056" lon="-0.66368">
        <ele>1343</ele>
        <time>2017-02-11T10:07:45Z</time>
      </trkpt>
      <trkpt lat="43.02057" lon="-0.66372">
        <ele>1343</ele>
        <time>2017-02-11T10:07:45Z</time>
      </trkpt>
      <trkpt lat="43.02057" lon="-0.66376">
        <ele>1321</ele>
        <time>2017-02-11T10:07:45Z</time>
      </trkpt>
      <trkpt lat="43.02058" lon="-0.66379">
        <ele>1321</ele>
        <time>2017-02-11T10:08:05Z</time>
      </trkpt>
      <trkpt lat="43.02059" lon="-0.66383">
        <ele>1321</ele>
        <time>2017-02-11T10:08:05Z</time>
      </trkpt>
      <trkpt lat="43.0206" lon="-0.66385">
        <ele>1321</ele>
        <time>2017-02-11T10:08:05Z</time>
      </trkpt>
      <trkpt lat="43.02061" lon="-0.66388">
        <ele>1321</ele>
        <time>2017-02-11T10:08:05Z</time>
      </trkpt>
      <trkpt lat="43.02063" lon="-0.66394">
        <ele>1321</ele>
        <time>2017-02-11T10:08:05Z</time>
      </trkpt>
      <trkpt lat="43.02064" lon="-0.66398">
        <ele>1321</ele>
        <time>2017-02-11T10:08:21Z</time>
      </trkpt>
      <trkpt lat="43.02064" lon="-0.66401">
        <ele>1321</ele>
        <time>2017-02-11T10:08:21Z</time>
      </trkpt>
      <trkpt lat="43.02064" lon="-0.66406">
        <ele>1321</ele>
        <time>2017-02-11T10:08:21Z</time>
      </trkpt>
      <trkpt lat="43.02064" lon="-0.66411">
        <ele>1321</ele>
        <time>2017-02-11T10:08:21Z</time>
      </trkpt>
      <trkpt lat="43.02064" lon="-0.66408">
        <ele>1321</ele>
        <time>2017-02-11T10:08:41Z</time>
      </trkpt>
      <trkpt lat="43.02066" lon="-0.66408">
        <ele>1321</ele>
        <time>2017-02-11T10:08:41Z</time>
      </trkpt>
      <trkpt lat="43.02067" lon="-0.66411">
        <ele>1321</ele>
        <time>2017-02-11T10:08:41Z</time>
      </trkpt>
      <trkpt lat="43.02069" lon="-0.66415">
        <ele>1321</ele>
        <time>2017-02-11T10:08:41Z</time>
      </trkpt>
      <trkpt lat="43.02071" lon="-0.66418">
        <ele>1321</ele>
        <time>2017-02-11T10:08:41Z</time>
      </trkpt>
      <trkpt lat="43.02073" lon="-0.66419">
        <ele>1321</ele>
        <time>2017-02-11T10:09:01Z</time>
      </trkpt>
      <trkpt lat="43.02074" lon="-0.66421">
        <ele>1321</ele>
        <time>2017-02-11T10:09:01Z</time>
      </trkpt>
      <trkpt lat="43.02076" lon="-0.66422">
        <ele>1321</ele>
        <time>2017-02-11T10:09:01Z</time>
      </trkpt>
      <trkpt lat="43.02079" lon="-0.66426">
        <ele>1321</ele>
        <time>2017-02-11T10:09:01Z</time>
      </trkpt>
      <trkpt lat="43.02082" lon="-0.6643">
        <ele>1321</ele>
        <time>2017-02-11T10:09:01Z</time>
      </trkpt>
      <trkpt lat="43.02084" lon="-0.6643">
        <ele>1321</ele>
        <time>2017-02-11T10:09:21Z</time>
      </trkpt>
      <trkpt lat="43.02087" lon="-0.66432">
        <ele>1321</ele>
        <time>2017-02-11T10:09:21Z</time>
      </trkpt>
      <trkpt lat="43.02089" lon="-0.66433">
        <ele>1321</ele>
        <time>2017-02-11T10:09:21Z</time>
      </trkpt>
      <trkpt lat="43.02092" lon="-0.66434">
        <ele>1321</ele>
        <time>2017-02-11T10:09:21Z</time>
      </trkpt>
      <trkpt lat="43.02094" lon="-0.66436">
        <ele>1321</ele>
        <time>2017-02-11T10:09:21Z</time>
      </trkpt>
      <trkpt lat="43.02103" lon="-0.66443">
        <ele>1321</ele>
        <time>2017-02-11T10:09:49Z</time>
      </trkpt>
      <trkpt lat="43.02104" lon="-0.66443">
        <ele>1321</ele>
        <time>2017-02-11T10:09:49Z</time>
      </trkpt>
      <trkpt lat="43.02104" lon="-0.66442">
        <ele>1321</ele>
        <time>2017-02-11T10:09:49Z</time>
      </trkpt>
      <trkpt lat="43.02105" lon="-0.66443">
        <ele>1321</ele>
        <time>2017-02-11T10:09:49Z</time>
      </trkpt>
      <trkpt lat="43.02108" lon="-0.66446">
        <ele>1321</ele>
        <time>2017-02-11T10:09:49Z</time>
      </trkpt>
      <trkpt lat="43.0211" lon="-0.66448">
        <ele>1321</ele>
        <time>2017-02-11T10:10:05Z</time>
      </trkpt>
      <trkpt lat="43.02113" lon="-0.66449">
        <ele>1321</ele>
        <time>2017-02-11T10:10:05Z</time>
      </trkpt>
      <trkpt lat="43.02116" lon="-0.66451">
        <ele>1321</ele>
        <time>2017-02-11T10:10:05Z</time>
      </trkpt>
      <trkpt lat="43.02119" lon="-0.66452">
        <ele>1321</ele>
        <time>2017-02-11T10:10:05Z</time>
      </trkpt>
      <trkpt lat="43.02122" lon="-0.66453">
        <ele>1321</ele>
        <time>2017-02-11T10:10:21Z</time>
      </trkpt>
      <trkpt lat="43.02126" lon="-0.66454">
        <ele>1330</ele>
        <time>2017-02-11T10:10:21Z</time>
      </trkpt>
      <trkpt lat="43.02129" lon="-0.66456">
        <ele>1330</ele>
        <time>2017-02-11T10:10:21Z</time>
      </trkpt>
      <trkpt lat="43.02132" lon="-0.66458">
        <ele>1330</ele>
        <time>2017-02-11T10:10:21Z</time>
      </trkpt>
      <trkpt lat="43.02135" lon="-0.66459">
        <ele>1297</ele>
        <time>2017-02-11T10:10:41Z</time>
      </trkpt>
      <trkpt lat="43.02138" lon="-0.66461">
        <ele>1297</ele>
        <time>2017-02-11T10:10:41Z</time>
      </trkpt>
      <trkpt lat="43.02141" lon="-0.66462">
        <ele>1297</ele>
        <time>2017-02-11T10:10:41Z</time>
      </trkpt>
      <trkpt lat="43.02144" lon="-0.66463">
        <ele>1297</ele>
        <time>2017-02-11T10:10:41Z</time>
      </trkpt>
      <trkpt lat="43.02147" lon="-0.66466">
        <ele>1297</ele>
        <time>2017-02-11T10:10:41Z</time>
      </trkpt>
      <trkpt lat="43.0215" lon="-0.66467">
        <ele>1297</ele>
        <time>2017-02-11T10:10:57Z</time>
      </trkpt>
      <trkpt lat="43.02153" lon="-0.66469">
        <ele>1297</ele>
        <time>2017-02-11T10:10:57Z</time>
      </trkpt>
      <trkpt lat="43.02156" lon="-0.66472">
        <ele>1297</ele>
        <time>2017-02-11T10:10:57Z</time>
      </trkpt>
      <trkpt lat="43.02159" lon="-0.66474">
        <ele>1297</ele>
        <time>2017-02-11T10:10:57Z</time>
      </trkpt>
      <trkpt lat="43.02162" lon="-0.66476">
        <ele>1297</ele>
        <time>2017-02-11T10:11:13Z</time>
      </trkpt>
      <trkpt lat="43.02165" lon="-0.66477">
        <ele>1297</ele>
        <time>2017-02-11T10:11:13Z</time>
      </trkpt>
      <trkpt lat="43.02169" lon="-0.66478">
        <ele>1297</ele>
        <time>2017-02-11T10:11:13Z</time>
      </trkpt>
      <trkpt lat="43.02174" lon="-0.6648">
        <ele>1297</ele>
        <time>2017-02-11T10:11:13Z</time>
      </trkpt>
      <trkpt lat="43.02177" lon="-0.66481">
        <ele>1297</ele>
        <time>2017-02-11T10:11:33Z</time>
      </trkpt>
      <trkpt lat="43.02179" lon="-0.66482">
        <ele>1297</ele>
        <time>2017-02-11T10:11:33Z</time>
      </trkpt>
      <trkpt lat="43.02181" lon="-0.66483">
        <ele>1297</ele>
        <time>2017-02-11T10:11:33Z</time>
      </trkpt>
      <trkpt lat="43.02183" lon="-0.66483">
        <ele>1297</ele>
        <time>2017-02-11T10:11:33Z</time>
      </trkpt>
      <trkpt lat="43.02186" lon="-0.66485">
        <ele>1297</ele>
        <time>2017-02-11T10:11:33Z</time>
      </trkpt>
      <trkpt lat="43.0219" lon="-0.66486">
        <ele>1297</ele>
        <time>2017-02-11T10:11:49Z</time>
      </trkpt>
      <trkpt lat="43.02193" lon="-0.66487">
        <ele>1297</ele>
        <time>2017-02-11T10:11:49Z</time>
      </trkpt>
      <trkpt lat="43.02196" lon="-0.66488">
        <ele>1297</ele>
        <time>2017-02-11T10:11:49Z</time>
      </trkpt>
      <trkpt lat="43.02199" lon="-0.66489">
        <ele>1297</ele>
        <time>2017-02-11T10:11:49Z</time>
      </trkpt>
      <trkpt lat="43.02201" lon="-0.66489">
        <ele>1297</ele>
        <time>2017-02-11T10:12:09Z</time>
      </trkpt>
      <trkpt lat="43.02204" lon="-0.66488">
        <ele>1297</ele>
        <time>2017-02-11T10:12:09Z</time>
      </trkpt>
      <trkpt lat="43.02208" lon="-0.66488">
        <ele>1297</ele>
        <time>2017-02-11T10:12:09Z</time>
      </trkpt>
      <trkpt lat="43.0221" lon="-0.66488">
        <ele>1269</ele>
        <time>2017-02-11T10:12:09Z</time>
      </trkpt>
      <trkpt lat="43.02212" lon="-0.66485">
        <ele>1269</ele>
        <time>2017-02-11T10:12:09Z</time>
      </trkpt>
      <trkpt lat="43.02217" lon="-0.66474">
        <ele>1269</ele>
        <time>2017-02-11T10:12:49Z</time>
      </trkpt>
      <trkpt lat="43.02218" lon="-0.66473">
        <ele>1269</ele>
        <time>2017-02-11T10:12:49Z</time>
      </trkpt>
      <trkpt lat="43.02219" lon="-0.66471">
        <ele>1269</ele>
        <time>2017-02-11T10:12:49Z</time>
      </trkpt>
      <trkpt lat="43.0222" lon="-0.66469">
        <ele>1269</ele>
        <time>2017-02-11T10:12:49Z</time>
      </trkpt>
      <trkpt lat="43.02223" lon="-0.66467">
        <ele>1269</ele>
        <time>2017-02-11T10:12:49Z</time>
      </trkpt>
      <trkpt lat="43.02226" lon="-0.66466">
        <ele>1269</ele>
        <time>2017-02-11T10:13:09Z</time>
      </trkpt>
      <trkpt lat="43.02229" lon="-0.66463">
        <ele>1269</ele>
        <time>2017-02-11T10:13:09Z</time>
      </trkpt>
      <trkpt lat="43.02231" lon="-0.66462">
        <ele>1269</ele>
        <time>2017-02-11T10:13:09Z</time>
      </trkpt>
      <trkpt lat="43.02233" lon="-0.66461">
        <ele>1269</ele>
        <time>2017-02-11T10:13:09Z</time>
      </trkpt>
      <trkpt lat="43.02237" lon="-0.66457">
        <ele>1301</ele>
        <time>2017-02-11T10:13:09Z</time>
      </trkpt>
      <trkpt lat="43.0224" lon="-0.66455">
        <ele>1301</ele>
        <time>2017-02-11T10:13:29Z</time>
      </trkpt>
      <trkpt lat="43.02242" lon="-0.66454">
        <ele>1301</ele>
        <time>2017-02-11T10:13:29Z</time>
      </trkpt>
      <trkpt lat="43.02246" lon="-0.66453">
        <ele>1301</ele>
        <time>2017-02-11T10:13:29Z</time>
      </trkpt>
      <trkpt lat="43.02247" lon="-0.66451">
        <ele>1301</ele>
        <time>2017-02-11T10:13:29Z</time>
      </trkpt>
      <trkpt lat="43.02251" lon="-0.66448">
        <ele>1301</ele>
        <time>2017-02-11T10:13:29Z</time>
      </trkpt>
      <trkpt lat="43.02254" lon="-0.66446">
        <ele>1301</ele>
        <time>2017-02-11T10:13:45Z</time>
      </trkpt>
      <trkpt lat="43.02258" lon="-0.66441">
        <ele>1301</ele>
        <time>2017-02-11T10:13:45Z</time>
      </trkpt>
      <trkpt lat="43.0226" lon="-0.66439">
        <ele>1301</ele>
        <time>2017-02-11T10:13:45Z</time>
      </trkpt>
      <trkpt lat="43.02261" lon="-0.66438">
        <ele>1301</ele>
        <time>2017-02-11T10:13:45Z</time>
      </trkpt>
      <trkpt lat="43.02265" lon="-0.66435">
        <ele>1301</ele>
        <time>2017-02-11T10:14:01Z</time>
      </trkpt>
      <trkpt lat="43.02267" lon="-0.66432">
        <ele>1301</ele>
        <time>2017-02-11T10:14:01Z</time>
      </trkpt>
      <trkpt lat="43.02269" lon="-0.66429">
        <ele>1301</ele>
        <time>2017-02-11T10:14:01Z</time>
      </trkpt>
      <trkpt lat="43.02272" lon="-0.66425">
        <ele>1301</ele>
        <time>2017-02-11T10:14:01Z</time>
      </trkpt>
      <trkpt lat="43.02273" lon="-0.66422">
        <ele>1301</ele>
        <time>2017-02-11T10:14:17Z</time>
      </trkpt>
      <trkpt lat="43.02275" lon="-0.66419">
        <ele>1301</ele>
        <time>2017-02-11T10:14:17Z</time>
      </trkpt>
      <trkpt lat="43.02277" lon="-0.66413">
        <ele>1301</ele>
        <time>2017-02-11T10:14:17Z</time>
      </trkpt>
      <trkpt lat="43.02279" lon="-0.66409">
        <ele>1301</ele>
        <time>2017-02-11T10:14:17Z</time>
      </trkpt>
      <trkpt lat="43.02281" lon="-0.66406">
        <ele>1301</ele>
        <time>2017-02-11T10:14:41Z</time>
      </trkpt>
      <trkpt lat="43.02282" lon="-0.66405">
        <ele>1301</ele>
        <time>2017-02-11T10:14:41Z</time>
      </trkpt>
      <trkpt lat="43.02283" lon="-0.66403">
        <ele>1301</ele>
        <time>2017-02-11T10:14:41Z</time>
      </trkpt>
      <trkpt lat="43.02285" lon="-0.66399">
        <ele>1301</ele>
        <time>2017-02-11T10:14:41Z</time>
      </trkpt>
      <trkpt lat="43.02287" lon="-0.66395">
        <ele>1301</ele>
        <time>2017-02-11T10:14:41Z</time>
      </trkpt>
      <trkpt lat="43.02289" lon="-0.66392">
        <ele>1301</ele>
        <time>2017-02-11T10:15:01Z</time>
      </trkpt>
      <trkpt lat="43.02289" lon="-0.66393">
        <ele>1301</ele>
        <time>2017-02-11T10:15:01Z</time>
      </trkpt>
      <trkpt lat="43.02293" lon="-0.66389">
        <ele>1301</ele>
        <time>2017-02-11T10:15:01Z</time>
      </trkpt>
      <trkpt lat="43.02295" lon="-0.66384">
        <ele>1301</ele>
        <time>2017-02-11T10:15:01Z</time>
      </trkpt>
      <trkpt lat="43.02296" lon="-0.66381">
        <ele>1301</ele>
        <time>2017-02-11T10:15:01Z</time>
      </trkpt>
      <trkpt lat="43.02298" lon="-0.66375">
        <ele>1330</ele>
        <time>2017-02-11T10:15:17Z</time>
      </trkpt>
      <trkpt lat="43.02299" lon="-0.6637">
        <ele>1330</ele>
        <time>2017-02-11T10:15:17Z</time>
      </trkpt>
      <trkpt lat="43.02301" lon="-0.66367">
        <ele>1330</ele>
        <time>2017-02-11T10:15:17Z</time>
      </trkpt>
      <trkpt lat="43.02302" lon="-0.66361">
        <ele>1330</ele>
        <time>2017-02-11T10:15:17Z</time>
      </trkpt>
      <trkpt lat="43.02304" lon="-0.66355">
        <ele>1330</ele>
        <time>2017-02-11T10:15:37Z</time>
      </trkpt>
      <trkpt lat="43.02305" lon="-0.66352">
        <ele>1330</ele>
        <time>2017-02-11T10:15:37Z</time>
      </trkpt>
      <trkpt lat="43.02307" lon="-0.6635">
        <ele>1330</ele>
        <time>2017-02-11T10:15:37Z</time>
      </trkpt>
      <trkpt lat="43.02309" lon="-0.66348">
        <ele>1330</ele>
        <time>2017-02-11T10:15:37Z</time>
      </trkpt>
      <trkpt lat="43.02312" lon="-0.66345">
        <ele>1330</ele>
        <time>2017-02-11T10:15:37Z</time>
      </trkpt>
      <trkpt lat="43.02314" lon="-0.66343">
        <ele>1330</ele>
        <time>2017-02-11T10:15:57Z</time>
      </trkpt>
      <trkpt lat="43.02317" lon="-0.66342">
        <ele>1330</ele>
        <time>2017-02-11T10:15:57Z</time>
      </trkpt>
      <trkpt lat="43.02319" lon="-0.66341">
        <ele>1330</ele>
        <time>2017-02-11T10:15:57Z</time>
      </trkpt>
      <trkpt lat="43.02321" lon="-0.66339">
        <ele>1330</ele>
        <time>2017-02-11T10:15:57Z</time>
      </trkpt>
      <trkpt lat="43.02324" lon="-0.66338">
        <ele>1330</ele>
        <time>2017-02-11T10:15:57Z</time>
      </trkpt>
      <trkpt lat="43.02326" lon="-0.66336">
        <ele>1330</ele>
        <time>2017-02-11T10:16:17Z</time>
      </trkpt>
      <trkpt lat="43.02329" lon="-0.66333">
        <ele>1330</ele>
        <time>2017-02-11T10:16:17Z</time>
      </trkpt>
      <trkpt lat="43.02332" lon="-0.66331">
        <ele>1330</ele>
        <time>2017-02-11T10:16:17Z</time>
      </trkpt>
      <trkpt lat="43.02333" lon="-0.66329">
        <ele>1330</ele>
        <time>2017-02-11T10:16:17Z</time>
      </trkpt>
      <trkpt lat="43.02335" lon="-0.66325">
        <ele>1330</ele>
        <time>2017-02-11T10:16:17Z</time>
      </trkpt>
      <trkpt lat="43.02339" lon="-0.66315">
        <ele>1330</ele>
        <time>2017-02-11T10:16:57Z</time>
      </trkpt>
      <trkpt lat="43.0234" lon="-0.66313">
        <ele>1330</ele>
        <time>2017-02-11T10:16:57Z</time>
      </trkpt>
      <trkpt lat="43.02343" lon="-0.6631">
        <ele>1330</ele>
        <time>2017-02-11T10:16:57Z</time>
      </trkpt>
      <trkpt lat="43.02344" lon="-0.66306">
        <ele>1330</ele>
        <time>2017-02-11T10:16:57Z</time>
      </trkpt>
      <trkpt lat="43.02346" lon="-0.66302">
        <ele>1330</ele>
        <time>2017-02-11T10:16:57Z</time>
      </trkpt>
      <trkpt lat="43.02344" lon="-0.66299">
        <ele>1330</ele>
        <time>2017-02-11T10:17:13Z</time>
      </trkpt>
      <trkpt lat="43.02347" lon="-0.66297">
        <ele>1330</ele>
        <time>2017-02-11T10:17:13Z</time>
      </trkpt>
      <trkpt lat="43.02352" lon="-0.66293">
        <ele>1330</ele>
        <time>2017-02-11T10:17:13Z</time>
      </trkpt>
      <trkpt lat="43.02359" lon="-0.66289">
        <ele>1360</ele>
        <time>2017-02-11T10:17:13Z</time>
      </trkpt>
      <trkpt lat="43.02363" lon="-0.6629">
        <ele>1360</ele>
        <time>2017-02-11T10:18:01Z</time>
      </trkpt>
      <trkpt lat="43.02365" lon="-0.66289">
        <ele>1360</ele>
        <time>2017-02-11T10:18:01Z</time>
      </trkpt>
      <trkpt lat="43.02369" lon="-0.66287">
        <ele>1360</ele>
        <time>2017-02-11T10:18:01Z</time>
      </trkpt>
      <trkpt lat="43.02374" lon="-0.66285">
        <ele>1360</ele>
        <time>2017-02-11T10:18:01Z</time>
      </trkpt>
      <trkpt lat="43.02376" lon="-0.66283">
        <ele>1388</ele>
        <time>2017-02-11T10:18:01Z</time>
      </trkpt>
      <trkpt lat="43.02378" lon="-0.66282">
        <ele>1388</ele>
        <time>2017-02-11T10:18:17Z</time>
      </trkpt>
      <trkpt lat="43.02381" lon="-0.66283">
        <ele>1388</ele>
        <time>2017-02-11T10:18:17Z</time>
      </trkpt>
      <trkpt lat="43.02385" lon="-0.66281">
        <ele>1388</ele>
        <time>2017-02-11T10:18:17Z</time>
      </trkpt>
      <trkpt lat="43.0239" lon="-0.66279">
        <ele>1388</ele>
        <time>2017-02-11T10:18:17Z</time>
      </trkpt>
      <trkpt lat="43.02394" lon="-0.66278">
        <ele>1388</ele>
        <time>2017-02-11T10:18:41Z</time>
      </trkpt>
      <trkpt lat="43.02396" lon="-0.66281">
        <ele>1388</ele>
        <time>2017-02-11T10:18:41Z</time>
      </trkpt>
      <trkpt lat="43.02399" lon="-0.66281">
        <ele>1388</ele>
        <time>2017-02-11T10:18:41Z</time>
      </trkpt>
      <trkpt lat="43.02401" lon="-0.6628">
        <ele>1388</ele>
        <time>2017-02-11T10:18:41Z</time>
      </trkpt>
      <trkpt lat="43.02404" lon="-0.6628">
        <ele>1388</ele>
        <time>2017-02-11T10:18:41Z</time>
      </trkpt>
      <trkpt lat="43.02405" lon="-0.66279">
        <ele>1388</ele>
        <time>2017-02-11T10:19:01Z</time>
      </trkpt>
      <trkpt lat="43.02407" lon="-0.66279">
        <ele>1388</ele>
        <time>2017-02-11T10:19:01Z</time>
      </trkpt>
      <trkpt lat="43.0241" lon="-0.66279">
        <ele>1388</ele>
        <time>2017-02-11T10:19:01Z</time>
      </trkpt>
      <trkpt lat="43.02413" lon="-0.6628">
        <ele>1388</ele>
        <time>2017-02-11T10:19:01Z</time>
      </trkpt>
      <trkpt lat="43.02416" lon="-0.6628">
        <ele>1388</ele>
        <time>2017-02-11T10:19:01Z</time>
      </trkpt>
      <trkpt lat="43.02419" lon="-0.66281">
        <ele>1388</ele>
        <time>2017-02-11T10:19:17Z</time>
      </trkpt>
      <trkpt lat="43.02422" lon="-0.66282">
        <ele>1388</ele>
        <time>2017-02-11T10:19:17Z</time>
      </trkpt>
      <trkpt lat="43.02428" lon="-0.66285">
        <ele>1388</ele>
        <time>2017-02-11T10:19:17Z</time>
      </trkpt>
      <trkpt lat="43.02431" lon="-0.66287">
        <ele>1388</ele>
        <time>2017-02-11T10:19:17Z</time>
      </trkpt>
      <trkpt lat="43.02433" lon="-0.66288">
        <ele>1388</ele>
        <time>2017-02-11T10:19:37Z</time>
      </trkpt>
      <trkpt lat="43.02436" lon="-0.66291">
        <ele>1388</ele>
        <time>2017-02-11T10:19:37Z</time>
      </trkpt>
      <trkpt lat="43.02438" lon="-0.66292">
        <ele>1388</ele>
        <time>2017-02-11T10:19:37Z</time>
      </trkpt>
      <trkpt lat="43.02439" lon="-0.66292">
        <ele>1363</ele>
        <time>2017-02-11T10:19:37Z</time>
      </trkpt>
      <trkpt lat="43.02443" lon="-0.66296">
        <ele>1363</ele>
        <time>2017-02-11T10:19:37Z</time>
      </trkpt>
      <trkpt lat="43.02444" lon="-0.663">
        <ele>1363</ele>
        <time>2017-02-11T10:19:57Z</time>
      </trkpt>
      <trkpt lat="43.02445" lon="-0.66301">
        <ele>1363</ele>
        <time>2017-02-11T10:19:57Z</time>
      </trkpt>
      <trkpt lat="43.02448" lon="-0.66304">
        <ele>1363</ele>
        <time>2017-02-11T10:19:57Z</time>
      </trkpt>
      <trkpt lat="43.02451" lon="-0.66306">
        <ele>1363</ele>
        <time>2017-02-11T10:19:57Z</time>
      </trkpt>
      <trkpt lat="43.02452" lon="-0.66308">
        <ele>1363</ele>
        <time>2017-02-11T10:19:57Z</time>
      </trkpt>
      <trkpt lat="43.02454" lon="-0.66311">
        <ele>1363</ele>
        <time>2017-02-11T10:20:13Z</time>
      </trkpt>
      <trkpt lat="43.02457" lon="-0.66316">
        <ele>1363</ele>
        <time>2017-02-11T10:20:13Z</time>
      </trkpt>
      <trkpt lat="43.02459" lon="-0.66319">
        <ele>1411</ele>
        <time>2017-02-11T10:20:13Z</time>
      </trkpt>
      <trkpt lat="43.02461" lon="-0.66325">
        <ele>1411</ele>
        <time>2017-02-11T10:20:13Z</time>
      </trkpt>
      <trkpt lat="43.02464" lon="-0.66331">
        <ele>1411</ele>
        <time>2017-02-11T10:20:37Z</time>
      </trkpt>
      <trkpt lat="43.02465" lon="-0.6633">
        <ele>1411</ele>
        <time>2017-02-11T10:20:37Z</time>
      </trkpt>
      <trkpt lat="43.02466" lon="-0.66332">
        <ele>1411</ele>
        <time>2017-02-11T10:20:37Z</time>
      </trkpt>
      <trkpt lat="43.02469" lon="-0.66335">
        <ele>1411</ele>
        <time>2017-02-11T10:20:37Z</time>
      </trkpt>
      <trkpt lat="43.02471" lon="-0.66337">
        <ele>1411</ele>
        <time>2017-02-11T10:20:37Z</time>
      </trkpt>
      <trkpt lat="43.02476" lon="-0.66328">
        <ele>1411</ele>
        <time>2017-02-11T10:21:41Z</time>
      </trkpt>
      <trkpt lat="43.02477" lon="-0.66328">
        <ele>1411</ele>
        <time>2017-02-11T10:21:41Z</time>
      </trkpt>
      <trkpt lat="43.0248" lon="-0.6633">
        <ele>1411</ele>
        <time>2017-02-11T10:21:41Z</time>
      </trkpt>
      <trkpt lat="43.02483" lon="-0.66332">
        <ele>1411</ele>
        <time>2017-02-11T10:21:41Z</time>
      </trkpt>
      <trkpt lat="43.02487" lon="-0.66333">
        <ele>1411</ele>
        <time>2017-02-11T10:21:41Z</time>
      </trkpt>
      <trkpt lat="43.02488" lon="-0.66332">
        <ele>1411</ele>
        <time>2017-02-11T10:22:05Z</time>
      </trkpt>
      <trkpt lat="43.02489" lon="-0.66335">
        <ele>1411</ele>
        <time>2017-02-11T10:22:05Z</time>
      </trkpt>
      <trkpt lat="43.02491" lon="-0.66339">
        <ele>1411</ele>
        <time>2017-02-11T10:22:05Z</time>
      </trkpt>
      <trkpt lat="43.02491" lon="-0.66341">
        <ele>1411</ele>
        <time>2017-02-11T10:22:05Z</time>
      </trkpt>
      <trkpt lat="43.02491" lon="-0.66346">
        <ele>1411</ele>
        <time>2017-02-11T10:22:05Z</time>
      </trkpt>
      <trkpt lat="43.02492" lon="-0.6635">
        <ele>1411</ele>
        <time>2017-02-11T10:25:01Z</time>
      </trkpt>
      <trkpt lat="43.02492" lon="-0.6635">
        <ele>1411</ele>
        <time>2017-02-11T10:25:01Z</time>
      </trkpt>
      <trkpt lat="43.0249" lon="-0.66347">
        <ele>1411</ele>
        <time>2017-02-11T10:25:01Z</time>
      </trkpt>
      <trkpt lat="43.02483" lon="-0.66338">
        <ele>1411</ele>
        <time>2017-02-11T10:25:01Z</time>
      </trkpt>
      <trkpt lat="43.02482" lon="-0.66331">
        <ele>1411</ele>
        <time>2017-02-11T10:25:01Z</time>
      </trkpt>
      <trkpt lat="43.02478" lon="-0.66323">
        <ele>1411</ele>
        <time>2017-02-11T10:25:17Z</time>
      </trkpt>
      <trkpt lat="43.02476" lon="-0.6632">
        <ele>1411</ele>
        <time>2017-02-11T10:25:17Z</time>
      </trkpt>
      <trkpt lat="43.02476" lon="-0.66314">
        <ele>1411</ele>
        <time>2017-02-11T10:25:17Z</time>
      </trkpt>
      <trkpt lat="43.02474" lon="-0.66311">
        <ele>1411</ele>
        <time>2017-02-11T10:25:17Z</time>
      </trkpt>
      <trkpt lat="43.02472" lon="-0.66305">
        <ele>1411</ele>
        <time>2017-02-11T10:25:41Z</time>
      </trkpt>
      <trkpt lat="43.02472" lon="-0.66304">
        <ele>1411</ele>
        <time>2017-02-11T10:25:41Z</time>
      </trkpt>
      <trkpt lat="43.0247" lon="-0.66301">
        <ele>1411</ele>
        <time>2017-02-11T10:25:41Z</time>
      </trkpt>
      <trkpt lat="43.0247" lon="-0.66299">
        <ele>1411</ele>
        <time>2017-02-11T10:25:41Z</time>
      </trkpt>
      <trkpt lat="43.02469" lon="-0.66294">
        <ele>1411</ele>
        <time>2017-02-11T10:25:41Z</time>
      </trkpt>
      <trkpt lat="43.02468" lon="-0.66293">
        <ele>1411</ele>
        <time>2017-02-11T10:26:01Z</time>
      </trkpt>
      <trkpt lat="43.02467" lon="-0.6629">
        <ele>1436</ele>
        <time>2017-02-11T10:26:01Z</time>
      </trkpt>
      <trkpt lat="43.02465" lon="-0.66286">
        <ele>1436</ele>
        <time>2017-02-11T10:26:01Z</time>
      </trkpt>
      <trkpt lat="43.02464" lon="-0.66283">
        <ele>1436</ele>
        <time>2017-02-11T10:26:01Z</time>
      </trkpt>
      <trkpt lat="43.02464" lon="-0.66281">
        <ele>1436</ele>
        <time>2017-02-11T10:26:01Z</time>
      </trkpt>
      <trkpt lat="43.02464" lon="-0.6628">
        <ele>1436</ele>
        <time>2017-02-11T10:26:21Z</time>
      </trkpt>
      <trkpt lat="43.02463" lon="-0.66278">
        <ele>1436</ele>
        <time>2017-02-11T10:26:21Z</time>
      </trkpt>
      <trkpt lat="43.02462" lon="-0.66272">
        <ele>1436</ele>
        <time>2017-02-11T10:26:21Z</time>
      </trkpt>
      <trkpt lat="43.02461" lon="-0.66271">
        <ele>1436</ele>
        <time>2017-02-11T10:26:21Z</time>
      </trkpt>
      <trkpt lat="43.0246" lon="-0.66265">
        <ele>1436</ele>
        <time>2017-02-11T10:26:21Z</time>
      </trkpt>
      <trkpt lat="43.02456" lon="-0.6626">
        <ele>1388</ele>
        <time>2017-02-11T10:26:45Z</time>
      </trkpt>
      <trkpt lat="43.02455" lon="-0.66258">
        <ele>1388</ele>
        <time>2017-02-11T10:26:45Z</time>
      </trkpt>
      <trkpt lat="43.02453" lon="-0.66255">
        <ele>1388</ele>
        <time>2017-02-11T10:26:45Z</time>
      </trkpt>
      <trkpt lat="43.02453" lon="-0.66254">
        <ele>1388</ele>
        <time>2017-02-11T10:26:45Z</time>
      </trkpt>
      <trkpt lat="43.02451" lon="-0.66252">
        <ele>1388</ele>
        <time>2017-02-11T10:26:45Z</time>
      </trkpt>
      <trkpt lat="43.02452" lon="-0.66249">
        <ele>1388</ele>
        <time>2017-02-11T10:27:25Z</time>
      </trkpt>
      <trkpt lat="43.02451" lon="-0.66248">
        <ele>1388</ele>
        <time>2017-02-11T10:27:25Z</time>
      </trkpt>
      <trkpt lat="43.02447" lon="-0.66241">
        <ele>1388</ele>
        <time>2017-02-11T10:27:25Z</time>
      </trkpt>
      <trkpt lat="43.02445" lon="-0.66239">
        <ele>1388</ele>
        <time>2017-02-11T10:27:25Z</time>
      </trkpt>
      <trkpt lat="43.02442" lon="-0.66235">
        <ele>1388</ele>
        <time>2017-02-11T10:27:25Z</time>
      </trkpt>
      <trkpt lat="43.02442" lon="-0.66235">
        <ele>1388</ele>
        <time>2017-02-11T10:27:41Z</time>
      </trkpt>
      <trkpt lat="43.02438" lon="-0.66232">
        <ele>1388</ele>
        <time>2017-02-11T10:27:41Z</time>
      </trkpt>
      <trkpt lat="43.02435" lon="-0.66231">
        <ele>1388</ele>
        <time>2017-02-11T10:27:41Z</time>
      </trkpt>
      <trkpt lat="43.02432" lon="-0.6623">
        <ele>1388</ele>
        <time>2017-02-11T10:27:41Z</time>
      </trkpt>
      <trkpt lat="43.0243" lon="-0.6623">
        <ele>1388</ele>
        <time>2017-02-11T10:27:57Z</time>
      </trkpt>
      <trkpt lat="43.0243" lon="-0.6623">
        <ele>1388</ele>
        <time>2017-02-11T10:27:57Z</time>
      </trkpt>
      <trkpt lat="43.02425" lon="-0.66231">
        <ele>1388</ele>
        <time>2017-02-11T10:27:57Z</time>
      </trkpt>
      <trkpt lat="43.02421" lon="-0.66231">
        <ele>1388</ele>
        <time>2017-02-11T10:27:57Z</time>
      </trkpt>
      <trkpt lat="43.02417" lon="-0.66232">
        <ele>1388</ele>
        <time>2017-02-11T10:28:13Z</time>
      </trkpt>
      <trkpt lat="43.02415" lon="-0.66228">
        <ele>1388</ele>
        <time>2017-02-11T10:28:13Z</time>
      </trkpt>
      <trkpt lat="43.02411" lon="-0.66224">
        <ele>1388</ele>
        <time>2017-02-11T10:28:13Z</time>
      </trkpt>
      <trkpt lat="43.02409" lon="-0.66221">
        <ele>1388</ele>
        <time>2017-02-11T10:28:13Z</time>
      </trkpt>
      <trkpt lat="43.02406" lon="-0.66217">
        <ele>1388</ele>
        <time>2017-02-11T10:28:41Z</time>
      </trkpt>
      <trkpt lat="43.02405" lon="-0.66217">
        <ele>1388</ele>
        <time>2017-02-11T10:28:41Z</time>
      </trkpt>
      <trkpt lat="43.02404" lon="-0.66215">
        <ele>1388</ele>
        <time>2017-02-11T10:28:41Z</time>
      </trkpt>
      <trkpt lat="43.02402" lon="-0.66213">
        <ele>1388</ele>
        <time>2017-02-11T10:28:41Z</time>
      </trkpt>
      <trkpt lat="43.024" lon="-0.66211">
        <ele>1388</ele>
        <time>2017-02-11T10:28:41Z</time>
      </trkpt>
      <trkpt lat="43.02399" lon="-0.6621">
        <ele>1388</ele>
        <time>2017-02-11T10:29:01Z</time>
      </trkpt>
      <trkpt lat="43.02397" lon="-0.66208">
        <ele>1415</ele>
        <time>2017-02-11T10:29:01Z</time>
      </trkpt>
      <trkpt lat="43.02394" lon="-0.66207">
        <ele>1415</ele>
        <time>2017-02-11T10:29:01Z</time>
      </trkpt>
      <trkpt lat="43.02393" lon="-0.66206">
        <ele>1415</ele>
        <time>2017-02-11T10:29:01Z</time>
      </trkpt>
      <trkpt lat="43.0239" lon="-0.66205">
        <ele>1415</ele>
        <time>2017-02-11T10:29:01Z</time>
      </trkpt>
      <trkpt lat="43.0239" lon="-0.66205">
        <ele>1415</ele>
        <time>2017-02-11T10:29:21Z</time>
      </trkpt>
      <trkpt lat="43.02389" lon="-0.66206">
        <ele>1415</ele>
        <time>2017-02-11T10:29:21Z</time>
      </trkpt>
      <trkpt lat="43.02385" lon="-0.66205">
        <ele>1415</ele>
        <time>2017-02-11T10:29:21Z</time>
      </trkpt>
      <trkpt lat="43.02382" lon="-0.66203">
        <ele>1415</ele>
        <time>2017-02-11T10:29:21Z</time>
      </trkpt>
      <trkpt lat="43.0238" lon="-0.66201">
        <ele>1415</ele>
        <time>2017-02-11T10:29:21Z</time>
      </trkpt>
      <trkpt lat="43.02376" lon="-0.66199">
        <ele>1415</ele>
        <time>2017-02-11T10:29:53Z</time>
      </trkpt>
      <trkpt lat="43.02374" lon="-0.66199">
        <ele>1392</ele>
        <time>2017-02-11T10:29:53Z</time>
      </trkpt>
      <trkpt lat="43.02373" lon="-0.662">
        <ele>1392</ele>
        <time>2017-02-11T10:29:53Z</time>
      </trkpt>
      <trkpt lat="43.02371" lon="-0.662">
        <ele>1392</ele>
        <time>2017-02-11T10:29:53Z</time>
      </trkpt>
      <trkpt lat="43.02369" lon="-0.662">
        <ele>1392</ele>
        <time>2017-02-11T10:29:53Z</time>
      </trkpt>
      <trkpt lat="43.02363" lon="-0.66196">
        <ele>1392</ele>
        <time>2017-02-11T10:30:37Z</time>
      </trkpt>
      <trkpt lat="43.02362" lon="-0.66194">
        <ele>1392</ele>
        <time>2017-02-11T10:30:37Z</time>
      </trkpt>
      <trkpt lat="43.02362" lon="-0.66191">
        <ele>1392</ele>
        <time>2017-02-11T10:30:37Z</time>
      </trkpt>
      <trkpt lat="43.02364" lon="-0.66187">
        <ele>1392</ele>
        <time>2017-02-11T10:30:37Z</time>
      </trkpt>
      <trkpt lat="43.02365" lon="-0.66186">
        <ele>1392</ele>
        <time>2017-02-11T10:30:37Z</time>
      </trkpt>
      <trkpt lat="43.02368" lon="-0.6618">
        <ele>1392</ele>
        <time>2017-02-11T10:31:01Z</time>
      </trkpt>
      <trkpt lat="43.02369" lon="-0.66178">
        <ele>1392</ele>
        <time>2017-02-11T10:31:01Z</time>
      </trkpt>
      <trkpt lat="43.02371" lon="-0.66177">
        <ele>1392</ele>
        <time>2017-02-11T10:31:01Z</time>
      </trkpt>
      <trkpt lat="43.02372" lon="-0.66175">
        <ele>1392</ele>
        <time>2017-02-11T10:31:01Z</time>
      </trkpt>
      <trkpt lat="43.02372" lon="-0.66174">
        <ele>1392</ele>
        <time>2017-02-11T10:31:01Z</time>
      </trkpt>
      <trkpt lat="43.02369" lon="-0.66173">
        <ele>1392</ele>
        <time>2017-02-11T10:31:37Z</time>
      </trkpt>
      <trkpt lat="43.02368" lon="-0.66174">
        <ele>1392</ele>
        <time>2017-02-11T10:31:37Z</time>
      </trkpt>
      <trkpt lat="43.02365" lon="-0.66175">
        <ele>1392</ele>
        <time>2017-02-11T10:31:37Z</time>
      </trkpt>
      <trkpt lat="43.02365" lon="-0.66175">
        <ele>1392</ele>
        <time>2017-02-11T10:31:37Z</time>
      </trkpt>
      <trkpt lat="43.02362" lon="-0.66175">
        <ele>1392</ele>
        <time>2017-02-11T10:31:37Z</time>
      </trkpt>
      <trkpt lat="43.0236" lon="-0.66176">
        <ele>1392</ele>
        <time>2017-02-11T10:31:57Z</time>
      </trkpt>
      <trkpt lat="43.02358" lon="-0.66174">
        <ele>1392</ele>
        <time>2017-02-11T10:31:57Z</time>
      </trkpt>
      <trkpt lat="43.02353" lon="-0.66174">
        <ele>1392</ele>
        <time>2017-02-11T10:31:57Z</time>
      </trkpt>
      <trkpt lat="43.02353" lon="-0.66174">
        <ele>1392</ele>
        <time>2017-02-11T10:31:57Z</time>
      </trkpt>
      <trkpt lat="43.02351" lon="-0.66175">
        <ele>1392</ele>
        <time>2017-02-11T10:31:57Z</time>
      </trkpt>
      <trkpt lat="43.02349" lon="-0.66175">
        <ele>1392</ele>
        <time>2017-02-11T10:32:37Z</time>
      </trkpt>
      <trkpt lat="43.02349" lon="-0.66173">
        <ele>1392</ele>
        <time>2017-02-11T10:32:37Z</time>
      </trkpt>
      <trkpt lat="43.02351" lon="-0.66165">
        <ele>1392</ele>
        <time>2017-02-11T10:32:37Z</time>
      </trkpt>
      <trkpt lat="43.02351" lon="-0.66158">
        <ele>1392</ele>
        <time>2017-02-11T10:32:37Z</time>
      </trkpt>
      <trkpt lat="43.02353" lon="-0.66155">
        <ele>1392</ele>
        <time>2017-02-11T10:32:37Z</time>
      </trkpt>
      <trkpt lat="43.02352" lon="-0.66148">
        <ele>1392</ele>
        <time>2017-02-11T10:33:21Z</time>
      </trkpt>
      <trkpt lat="43.02351" lon="-0.66148">
        <ele>1392</ele>
        <time>2017-02-11T10:33:21Z</time>
      </trkpt>
      <trkpt lat="43.02348" lon="-0.66149">
        <ele>1392</ele>
        <time>2017-02-11T10:33:21Z</time>
      </trkpt>
      <trkpt lat="43.02346" lon="-0.66151">
        <ele>1392</ele>
        <time>2017-02-11T10:33:21Z</time>
      </trkpt>
      <trkpt lat="43.02345" lon="-0.66152">
        <ele>1392</ele>
        <time>2017-02-11T10:33:21Z</time>
      </trkpt>
      <trkpt lat="43.0234" lon="-0.66155">
        <ele>1392</ele>
        <time>2017-02-11T10:33:45Z</time>
      </trkpt>
      <trkpt lat="43.02339" lon="-0.66156">
        <ele>1392</ele>
        <time>2017-02-11T10:33:45Z</time>
      </trkpt>
      <trkpt lat="43.02337" lon="-0.66157">
        <ele>1392</ele>
        <time>2017-02-11T10:33:45Z</time>
      </trkpt>
      <trkpt lat="43.02335" lon="-0.66158">
        <ele>1392</ele>
        <time>2017-02-11T10:33:45Z</time>
      </trkpt>
      <trkpt lat="43.02333" lon="-0.66161">
        <ele>1392</ele>
        <time>2017-02-11T10:33:45Z</time>
      </trkpt>
      <trkpt lat="43.02333" lon="-0.6616">
        <ele>1392</ele>
        <time>2017-02-11T10:34:41Z</time>
      </trkpt>
      <trkpt lat="43.02335" lon="-0.66155">
        <ele>1392</ele>
        <time>2017-02-11T10:34:41Z</time>
      </trkpt>
      <trkpt lat="43.02337" lon="-0.66148">
        <ele>1392</ele>
        <time>2017-02-11T10:34:41Z</time>
      </trkpt>
      <trkpt lat="43.02337" lon="-0.66147">
        <ele>1392</ele>
        <time>2017-02-11T10:34:41Z</time>
      </trkpt>
      <trkpt lat="43.02337" lon="-0.66143">
        <ele>1392</ele>
        <time>2017-02-11T10:34:41Z</time>
      </trkpt>
      <trkpt lat="43.02338" lon="-0.66136">
        <ele>1392</ele>
        <time>2017-02-11T10:35:01Z</time>
      </trkpt>
      <trkpt lat="43.02338" lon="-0.6613">
        <ele>1392</ele>
        <time>2017-02-11T10:35:01Z</time>
      </trkpt>
      <trkpt lat="43.02339" lon="-0.66127">
        <ele>1392</ele>
        <time>2017-02-11T10:35:01Z</time>
      </trkpt>
      <trkpt lat="43.0234" lon="-0.66125">
        <ele>1392</ele>
        <time>2017-02-11T10:35:01Z</time>
      </trkpt>
      <trkpt lat="43.02341" lon="-0.66122">
        <ele>1427</ele>
        <time>2017-02-11T10:35:01Z</time>
      </trkpt>
      <trkpt lat="43.02336" lon="-0.66126">
        <ele>1392</ele>
        <time>2017-02-11T10:36:21Z</time>
      </trkpt>
      <trkpt lat="43.02335" lon="-0.66126">
        <ele>1392</ele>
        <time>2017-02-11T10:36:21Z</time>
      </trkpt>
      <trkpt lat="43.02334" lon="-0.66126">
        <ele>1392</ele>
        <time>2017-02-11T10:36:21Z</time>
      </trkpt>
      <trkpt lat="43.02333" lon="-0.66126">
        <ele>1392</ele>
        <time>2017-02-11T10:36:21Z</time>
      </trkpt>
      <trkpt lat="43.02332" lon="-0.66126">
        <ele>1392</ele>
        <time>2017-02-11T10:36:21Z</time>
      </trkpt>
      <trkpt lat="43.02328" lon="-0.66126">
        <ele>1392</ele>
        <time>2017-02-11T10:37:09Z</time>
      </trkpt>
      <trkpt lat="43.02328" lon="-0.66126">
        <ele>1392</ele>
        <time>2017-02-11T10:37:09Z</time>
      </trkpt>
      <trkpt lat="43.02329" lon="-0.66124">
        <ele>1427</ele>
        <time>2017-02-11T10:37:09Z</time>
      </trkpt>
      <trkpt lat="43.02327" lon="-0.66114">
        <ele>1427</ele>
        <time>2017-02-11T10:37:09Z</time>
      </trkpt>
      <trkpt lat="43.02326" lon="-0.66107">
        <ele>1427</ele>
        <time>2017-02-11T10:37:09Z</time>
      </trkpt>
      <trkpt lat="43.02328" lon="-0.66105">
        <ele>1427</ele>
        <time>2017-02-11T10:37:33Z</time>
      </trkpt>
      <trkpt lat="43.02329" lon="-0.66102">
        <ele>1427</ele>
        <time>2017-02-11T10:37:33Z</time>
      </trkpt>
      <trkpt lat="43.0233" lon="-0.66101">
        <ele>1427</ele>
        <time>2017-02-11T10:37:33Z</time>
      </trkpt>
      <trkpt lat="43.02333" lon="-0.66096">
        <ele>1427</ele>
        <time>2017-02-11T10:37:33Z</time>
      </trkpt>
      <trkpt lat="43.02334" lon="-0.66092">
        <ele>1427</ele>
        <time>2017-02-11T10:37:33Z</time>
      </trkpt>
      <trkpt lat="43.02339" lon="-0.66087">
        <ele>1427</ele>
        <time>2017-02-11T10:38:01Z</time>
      </trkpt>
      <trkpt lat="43.02341" lon="-0.66085">
        <ele>1427</ele>
        <time>2017-02-11T10:38:01Z</time>
      </trkpt>
      <trkpt lat="43.02342" lon="-0.66083">
        <ele>1427</ele>
        <time>2017-02-11T10:38:01Z</time>
      </trkpt>
      <trkpt lat="43.02343" lon="-0.66083">
        <ele>1427</ele>
        <time>2017-02-11T10:38:01Z</time>
      </trkpt>
      <trkpt lat="43.02345" lon="-0.66081">
        <ele>1427</ele>
        <time>2017-02-11T10:38:01Z</time>
      </trkpt>
      <trkpt lat="43.02339" lon="-0.6608">
        <ele>1427</ele>
        <time>2017-02-11T10:39:17Z</time>
      </trkpt>
      <trkpt lat="43.02338" lon="-0.6608">
        <ele>1427</ele>
        <time>2017-02-11T10:39:17Z</time>
      </trkpt>
      <trkpt lat="43.02338" lon="-0.6608">
        <ele>1427</ele>
        <time>2017-02-11T10:39:17Z</time>
      </trkpt>
      <trkpt lat="43.02337" lon="-0.6608">
        <ele>1427</ele>
        <time>2017-02-11T10:39:17Z</time>
      </trkpt>
      <trkpt lat="43.02334" lon="-0.6608">
        <ele>1427</ele>
        <time>2017-02-11T10:39:17Z</time>
      </trkpt>
      <trkpt lat="43.02333" lon="-0.6608">
        <ele>1427</ele>
        <time>2017-02-11T10:39:49Z</time>
      </trkpt>
      <trkpt lat="43.0233" lon="-0.66081">
        <ele>1427</ele>
        <time>2017-02-11T10:39:49Z</time>
      </trkpt>
      <trkpt lat="43.0233" lon="-0.66081">
        <ele>1427</ele>
        <time>2017-02-11T10:39:49Z</time>
      </trkpt>
      <trkpt lat="43.02329" lon="-0.66081">
        <ele>1427</ele>
        <time>2017-02-11T10:39:49Z</time>
      </trkpt>
      <trkpt lat="43.02324" lon="-0.66084">
        <ele>1427</ele>
        <time>2017-02-11T10:39:49Z</time>
      </trkpt>
      <trkpt lat="43.02323" lon="-0.66078">
        <ele>1427</ele>
        <time>2017-02-11T10:40:53Z</time>
      </trkpt>
      <trkpt lat="43.02323" lon="-0.66075">
        <ele>1427</ele>
        <time>2017-02-11T10:40:53Z</time>
      </trkpt>
      <trkpt lat="43.02323" lon="-0.66073">
        <ele>1427</ele>
        <time>2017-02-11T10:40:53Z</time>
      </trkpt>
      <trkpt lat="43.02323" lon="-0.66073">
        <ele>1427</ele>
        <time>2017-02-11T10:40:53Z</time>
      </trkpt>
      <trkpt lat="43.02323" lon="-0.66068">
        <ele>1427</ele>
        <time>2017-02-11T10:40:53Z</time>
      </trkpt>
      <trkpt lat="43.02324" lon="-0.66062">
        <ele>1427</ele>
        <time>2017-02-11T10:41:09Z</time>
      </trkpt>
      <trkpt lat="43.02325" lon="-0.66054">
        <ele>1427</ele>
        <time>2017-02-11T10:41:09Z</time>
      </trkpt>
      <trkpt lat="43.02326" lon="-0.66049">
        <ele>1427</ele>
        <time>2017-02-11T10:41:09Z</time>
      </trkpt>
      <trkpt lat="43.02327" lon="-0.66047">
        <ele>1427</ele>
        <time>2017-02-11T10:41:09Z</time>
      </trkpt>
      <trkpt lat="43.02324" lon="-0.66043">
        <ele>1427</ele>
        <time>2017-02-11T10:42:37Z</time>
      </trkpt>
      <trkpt lat="43.02322" lon="-0.66044">
        <ele>1427</ele>
        <time>2017-02-11T10:42:37Z</time>
      </trkpt>
      <trkpt lat="43.02321" lon="-0.66045">
        <ele>1427</ele>
        <time>2017-02-11T10:42:37Z</time>
      </trkpt>
      <trkpt lat="43.02319" lon="-0.66045">
        <ele>1427</ele>
        <time>2017-02-11T10:42:37Z</time>
      </trkpt>
      <trkpt lat="43.02316" lon="-0.66048">
        <ele>1427</ele>
        <time>2017-02-11T10:42:37Z</time>
      </trkpt>
      <trkpt lat="43.02309" lon="-0.66048">
        <ele>1427</ele>
        <time>2017-02-11T10:43:17Z</time>
      </trkpt>
      <trkpt lat="43.0231" lon="-0.66042">
        <ele>1427</ele>
        <time>2017-02-11T10:43:17Z</time>
      </trkpt>
      <trkpt lat="43.0231" lon="-0.6604">
        <ele>1457</ele>
        <time>2017-02-11T10:43:17Z</time>
      </trkpt>
      <trkpt lat="43.0231" lon="-0.66036">
        <ele>1457</ele>
        <time>2017-02-11T10:43:17Z</time>
      </trkpt>
      <trkpt lat="43.02311" lon="-0.66034">
        <ele>1457</ele>
        <time>2017-02-11T10:43:17Z</time>
      </trkpt>
      <trkpt lat="43.02313" lon="-0.6603">
        <ele>1457</ele>
        <time>2017-02-11T10:43:37Z</time>
      </trkpt>
      <trkpt lat="43.02314" lon="-0.66023">
        <ele>1457</ele>
        <time>2017-02-11T10:43:37Z</time>
      </trkpt>
      <trkpt lat="43.02314" lon="-0.6602">
        <ele>1457</ele>
        <time>2017-02-11T10:43:37Z</time>
      </trkpt>
      <trkpt lat="43.02315" lon="-0.66018">
        <ele>1457</ele>
        <time>2017-02-11T10:43:37Z</time>
      </trkpt>
      <trkpt lat="43.02315" lon="-0.66016">
        <ele>1457</ele>
        <time>2017-02-11T10:43:37Z</time>
      </trkpt>
      <trkpt lat="43.02321" lon="-0.66004">
        <ele>1457</ele>
        <time>2017-02-11T10:44:21Z</time>
      </trkpt>
      <trkpt lat="43.02321" lon="-0.66004">
        <ele>1457</ele>
        <time>2017-02-11T10:44:21Z</time>
      </trkpt>
      <trkpt lat="43.02322" lon="-0.66003">
        <ele>1457</ele>
        <time>2017-02-11T10:44:21Z</time>
      </trkpt>
      <trkpt lat="43.02323" lon="-0.65999">
        <ele>1457</ele>
        <time>2017-02-11T10:44:21Z</time>
      </trkpt>
      <trkpt lat="43.02322" lon="-0.65997">
        <ele>1457</ele>
        <time>2017-02-11T10:44:21Z</time>
      </trkpt>
      <trkpt lat="43.02321" lon="-0.65997">
        <ele>1457</ele>
        <time>2017-02-11T10:44:41Z</time>
      </trkpt>
      <trkpt lat="43.0232" lon="-0.65998">
        <ele>1457</ele>
        <time>2017-02-11T10:44:41Z</time>
      </trkpt>
      <trkpt lat="43.02317" lon="-0.66">
        <ele>1457</ele>
        <time>2017-02-11T10:44:41Z</time>
      </trkpt>
      <trkpt lat="43.02314" lon="-0.66002">
        <ele>1457</ele>
        <time>2017-02-11T10:44:41Z</time>
      </trkpt>
      <trkpt lat="43.02313" lon="-0.66002">
        <ele>1457</ele>
        <time>2017-02-11T10:44:41Z</time>
      </trkpt>
      <trkpt lat="43.02307" lon="-0.6601">
        <ele>1457</ele>
        <time>2017-02-11T10:45:17Z</time>
      </trkpt>
      <trkpt lat="43.02306" lon="-0.66012">
        <ele>1457</ele>
        <time>2017-02-11T10:45:17Z</time>
      </trkpt>
      <trkpt lat="43.02304" lon="-0.66012">
        <ele>1457</ele>
        <time>2017-02-11T10:45:17Z</time>
      </trkpt>
      <trkpt lat="43.023" lon="-0.66011">
        <ele>1457</ele>
        <time>2017-02-11T10:45:17Z</time>
      </trkpt>
      <trkpt lat="43.02297" lon="-0.66009">
        <ele>1457</ele>
        <time>2017-02-11T10:45:17Z</time>
      </trkpt>
      <trkpt lat="43.02292" lon="-0.66001">
        <ele>1457</ele>
        <time>2017-02-11T10:55:45Z</time>
      </trkpt>
      <trkpt lat="43.02292" lon="-0.66001">
        <ele>1457</ele>
        <time>2017-02-11T10:55:45Z</time>
      </trkpt>
      <trkpt lat="43.02292" lon="-0.66001">
        <ele>1457</ele>
        <time>2017-02-11T10:55:45Z</time>
      </trkpt>
      <trkpt lat="43.02292" lon="-0.65999">
        <ele>1457</ele>
        <time>2017-02-11T10:55:45Z</time>
      </trkpt>
      <trkpt lat="43.02293" lon="-0.65993">
        <ele>1457</ele>
        <time>2017-02-11T10:55:45Z</time>
      </trkpt>
      <trkpt lat="43.02294" lon="-0.65987">
        <ele>1457</ele>
        <time>2017-02-11T10:56:21Z</time>
      </trkpt>
      <trkpt lat="43.02295" lon="-0.65984">
        <ele>1457</ele>
        <time>2017-02-11T10:56:21Z</time>
      </trkpt>
      <trkpt lat="43.02295" lon="-0.65983">
        <ele>1457</ele>
        <time>2017-02-11T10:56:21Z</time>
      </trkpt>
      <trkpt lat="43.02295" lon="-0.65983">
        <ele>1457</ele>
        <time>2017-02-11T10:56:21Z</time>
      </trkpt>
      <trkpt lat="43.02296" lon="-0.65981">
        <ele>1457</ele>
        <time>2017-02-11T10:56:21Z</time>
      </trkpt>
      <trkpt lat="43.02297" lon="-0.65981">
        <ele>1457</ele>
        <time>2017-02-11T10:56:45Z</time>
      </trkpt>
      <trkpt lat="43.02297" lon="-0.65981">
        <ele>1457</ele>
        <time>2017-02-11T10:56:45Z</time>
      </trkpt>
      <trkpt lat="43.02298" lon="-0.6598">
        <ele>1457</ele>
        <time>2017-02-11T10:56:45Z</time>
      </trkpt>
      <trkpt lat="43.02303" lon="-0.65976">
        <ele>1457</ele>
        <time>2017-02-11T10:56:45Z</time>
      </trkpt>
      <trkpt lat="43.02307" lon="-0.6597">
        <ele>1457</ele>
        <time>2017-02-11T10:56:45Z</time>
      </trkpt>
      <trkpt lat="43.02308" lon="-0.65968">
        <ele>1457</ele>
        <time>2017-02-11T10:57:01Z</time>
      </trkpt>
      <trkpt lat="43.02312" lon="-0.65962">
        <ele>1457</ele>
        <time>2017-02-11T10:57:01Z</time>
      </trkpt>
      <trkpt lat="43.02315" lon="-0.6596">
        <ele>1457</ele>
        <time>2017-02-11T10:57:01Z</time>
      </trkpt>
      <trkpt lat="43.02318" lon="-0.65958">
        <ele>1487</ele>
        <time>2017-02-11T10:57:01Z</time>
      </trkpt>
      <trkpt lat="43.02322" lon="-0.65955">
        <ele>1487</ele>
        <time>2017-02-11T10:57:25Z</time>
      </trkpt>
      <trkpt lat="43.02324" lon="-0.65954">
        <ele>1487</ele>
        <time>2017-02-11T10:57:25Z</time>
      </trkpt>
      <trkpt lat="43.02324" lon="-0.65952">
        <ele>1487</ele>
        <time>2017-02-11T10:57:25Z</time>
      </trkpt>
      <trkpt lat="43.02326" lon="-0.6595">
        <ele>1487</ele>
        <time>2017-02-11T10:57:25Z</time>
      </trkpt>
      <trkpt lat="43.02327" lon="-0.65948">
        <ele>1487</ele>
        <time>2017-02-11T10:57:25Z</time>
      </trkpt>
      <trkpt lat="43.02328" lon="-0.65947">
        <ele>1487</ele>
        <time>2017-02-11T10:57:45Z</time>
      </trkpt>
      <trkpt lat="43.0233" lon="-0.65945">
        <ele>1487</ele>
        <time>2017-02-11T10:57:45Z</time>
      </trkpt>
      <trkpt lat="43.02331" lon="-0.65942">
        <ele>1487</ele>
        <time>2017-02-11T10:57:45Z</time>
      </trkpt>
      <trkpt lat="43.02333" lon="-0.6594">
        <ele>1487</ele>
        <time>2017-02-11T10:57:45Z</time>
      </trkpt>
      <trkpt lat="43.02334" lon="-0.65937">
        <ele>1487</ele>
        <time>2017-02-11T10:57:45Z</time>
      </trkpt>
      <trkpt lat="43.02336" lon="-0.65935">
        <ele>1487</ele>
        <time>2017-02-11T10:58:01Z</time>
      </trkpt>
      <trkpt lat="43.02337" lon="-0.65931">
        <ele>1487</ele>
        <time>2017-02-11T10:58:01Z</time>
      </trkpt>
      <trkpt lat="43.02339" lon="-0.65927">
        <ele>1487</ele>
        <time>2017-02-11T10:58:01Z</time>
      </trkpt>
      <trkpt lat="43.02341" lon="-0.65922">
        <ele>1487</ele>
        <time>2017-02-11T10:58:01Z</time>
      </trkpt>
      <trkpt lat="43.02342" lon="-0.65917">
        <ele>1487</ele>
        <time>2017-02-11T10:58:29Z</time>
      </trkpt>
      <trkpt lat="43.02343" lon="-0.65917">
        <ele>1487</ele>
        <time>2017-02-11T10:58:29Z</time>
      </trkpt>
      <trkpt lat="43.02343" lon="-0.65913">
        <ele>1487</ele>
        <time>2017-02-11T10:58:29Z</time>
      </trkpt>
      <trkpt lat="43.02343" lon="-0.65908">
        <ele>1487</ele>
        <time>2017-02-11T10:58:29Z</time>
      </trkpt>
      <trkpt lat="43.02343" lon="-0.65907">
        <ele>1487</ele>
        <time>2017-02-11T10:58:29Z</time>
      </trkpt>
      <trkpt lat="43.02344" lon="-0.65896">
        <ele>1487</ele>
        <time>2017-02-11T10:58:53Z</time>
      </trkpt>
      <trkpt lat="43.02344" lon="-0.65896">
        <ele>1487</ele>
        <time>2017-02-11T10:58:53Z</time>
      </trkpt>
      <trkpt lat="43.02344" lon="-0.65895">
        <ele>1487</ele>
        <time>2017-02-11T10:58:53Z</time>
      </trkpt>
      <trkpt lat="43.02345" lon="-0.65892">
        <ele>1487</ele>
        <time>2017-02-11T10:58:53Z</time>
      </trkpt>
      <trkpt lat="43.02348" lon="-0.65885">
        <ele>1487</ele>
        <time>2017-02-11T10:58:53Z</time>
      </trkpt>
      <trkpt lat="43.0235" lon="-0.65876">
        <ele>1487</ele>
        <time>2017-02-11T10:59:21Z</time>
      </trkpt>
      <trkpt lat="43.02351" lon="-0.65874">
        <ele>1535</ele>
        <time>2017-02-11T10:59:21Z</time>
      </trkpt>
      <trkpt lat="43.02351" lon="-0.65874">
        <ele>1535</ele>
        <time>2017-02-11T10:59:21Z</time>
      </trkpt>
      <trkpt lat="43.02352" lon="-0.65874">
        <ele>1535</ele>
        <time>2017-02-11T10:59:21Z</time>
      </trkpt>
      <trkpt lat="43.02357" lon="-0.65872">
        <ele>1535</ele>
        <time>2017-02-11T10:59:21Z</time>
      </trkpt>
      <trkpt lat="43.02359" lon="-0.6587">
        <ele>1535</ele>
        <time>2017-02-11T10:59:37Z</time>
      </trkpt>
      <trkpt lat="43.02361" lon="-0.65868">
        <ele>1535</ele>
        <time>2017-02-11T10:59:37Z</time>
      </trkpt>
      <trkpt lat="43.02364" lon="-0.65865">
        <ele>1535</ele>
        <time>2017-02-11T10:59:37Z</time>
      </trkpt>
      <trkpt lat="43.02366" lon="-0.65863">
        <ele>1535</ele>
        <time>2017-02-11T10:59:37Z</time>
      </trkpt>
      <trkpt lat="43.02366" lon="-0.65863">
        <ele>1535</ele>
        <time>2017-02-11T10:59:57Z</time>
      </trkpt>
      <trkpt lat="43.02369" lon="-0.65861">
        <ele>1535</ele>
        <time>2017-02-11T10:59:57Z</time>
      </trkpt>
      <trkpt lat="43.02373" lon="-0.65859">
        <ele>1535</ele>
        <time>2017-02-11T10:59:57Z</time>
      </trkpt>
      <trkpt lat="43.02375" lon="-0.65858">
        <ele>1535</ele>
        <time>2017-02-11T10:59:57Z</time>
      </trkpt>
      <trkpt lat="43.02377" lon="-0.65858">
        <ele>1550</ele>
        <time>2017-02-11T11:00:17Z</time>
      </trkpt>
      <trkpt lat="43.02379" lon="-0.65858">
        <ele>1550</ele>
        <time>2017-02-11T11:00:17Z</time>
      </trkpt>
      <trkpt lat="43.02383" lon="-0.65856">
        <ele>1550</ele>
        <time>2017-02-11T11:00:17Z</time>
      </trkpt>
      <trkpt lat="43.02384" lon="-0.65855">
        <ele>1550</ele>
        <time>2017-02-11T11:00:17Z</time>
      </trkpt>
      <trkpt lat="43.02385" lon="-0.65855">
        <ele>1550</ele>
        <time>2017-02-11T11:00:17Z</time>
      </trkpt>
      <trkpt lat="43.02391" lon="-0.65854">
        <ele>1550</ele>
        <time>2017-02-11T11:01:09Z</time>
      </trkpt>
      <trkpt lat="43.02391" lon="-0.65854">
        <ele>1550</ele>
        <time>2017-02-11T11:01:09Z</time>
      </trkpt>
      <trkpt lat="43.02393" lon="-0.65853">
        <ele>1550</ele>
        <time>2017-02-11T11:01:09Z</time>
      </trkpt>
      <trkpt lat="43.02393" lon="-0.65853">
        <ele>1550</ele>
        <time>2017-02-11T11:01:09Z</time>
      </trkpt>
      <trkpt lat="43.02396" lon="-0.65853">
        <ele>1550</ele>
        <time>2017-02-11T11:01:09Z</time>
      </trkpt>
      <trkpt lat="43.02396" lon="-0.65853">
        <ele>1550</ele>
        <time>2017-02-11T11:01:25Z</time>
      </trkpt>
      <trkpt lat="43.024" lon="-0.65853">
        <ele>1550</ele>
        <time>2017-02-11T11:01:25Z</time>
      </trkpt>
      <trkpt lat="43.02404" lon="-0.65854">
        <ele>1550</ele>
        <time>2017-02-11T11:01:25Z</time>
      </trkpt>
      <trkpt lat="43.02406" lon="-0.65855">
        <ele>1550</ele>
        <time>2017-02-11T11:01:25Z</time>
      </trkpt>
      <trkpt lat="43.02408" lon="-0.65854">
        <ele>1550</ele>
        <time>2017-02-11T11:01:41Z</time>
      </trkpt>
      <trkpt lat="43.02408" lon="-0.65854">
        <ele>1550</ele>
        <time>2017-02-11T11:01:41Z</time>
      </trkpt>
      <trkpt lat="43.02409" lon="-0.65855">
        <ele>1550</ele>
        <time>2017-02-11T11:01:41Z</time>
      </trkpt>
      <trkpt lat="43.02417" lon="-0.6586">
        <ele>1550</ele>
        <time>2017-02-11T11:01:41Z</time>
      </trkpt>
      <trkpt lat="43.02422" lon="-0.65862">
        <ele>1550</ele>
        <time>2017-02-11T11:02:01Z</time>
      </trkpt>
      <trkpt lat="43.02426" lon="-0.65862">
        <ele>1550</ele>
        <time>2017-02-11T11:02:01Z</time>
      </trkpt>
      <trkpt lat="43.02429" lon="-0.65864">
        <ele>1550</ele>
        <time>2017-02-11T11:02:01Z</time>
      </trkpt>
      <trkpt lat="43.02431" lon="-0.65865">
        <ele>1550</ele>
        <time>2017-02-11T11:02:01Z</time>
      </trkpt>
      <trkpt lat="43.02432" lon="-0.65865">
        <ele>1550</ele>
        <time>2017-02-11T11:02:01Z</time>
      </trkpt>
      <trkpt lat="43.02435" lon="-0.65866">
        <ele>1550</ele>
        <time>2017-02-11T11:02:37Z</time>
      </trkpt>
      <trkpt lat="43.02436" lon="-0.65865">
        <ele>1550</ele>
        <time>2017-02-11T11:02:37Z</time>
      </trkpt>
      <trkpt lat="43.02438" lon="-0.65866">
        <ele>1550</ele>
        <time>2017-02-11T11:02:37Z</time>
      </trkpt>
      <trkpt lat="43.0244" lon="-0.65867">
        <ele>1550</ele>
        <time>2017-02-11T11:02:37Z</time>
      </trkpt>
      <trkpt lat="43.02442" lon="-0.65866">
        <ele>1550</ele>
        <time>2017-02-11T11:02:37Z</time>
      </trkpt>
      <trkpt lat="43.02449" lon="-0.65864">
        <ele>1550</ele>
        <time>2017-02-11T11:03:05Z</time>
      </trkpt>
      <trkpt lat="43.0245" lon="-0.65864">
        <ele>1550</ele>
        <time>2017-02-11T11:03:05Z</time>
      </trkpt>
      <trkpt lat="43.02452" lon="-0.65864">
        <ele>1550</ele>
        <time>2017-02-11T11:03:05Z</time>
      </trkpt>
      <trkpt lat="43.02453" lon="-0.65865">
        <ele>1550</ele>
        <time>2017-02-11T11:03:05Z</time>
      </trkpt>
      <trkpt lat="43.02457" lon="-0.65865">
        <ele>1550</ele>
        <time>2017-02-11T11:03:05Z</time>
      </trkpt>
      <trkpt lat="43.0246" lon="-0.65865">
        <ele>1550</ele>
        <time>2017-02-11T11:03:29Z</time>
      </trkpt>
      <trkpt lat="43.02461" lon="-0.65866">
        <ele>1550</ele>
        <time>2017-02-11T11:03:29Z</time>
      </trkpt>
      <trkpt lat="43.02464" lon="-0.65866">
        <ele>1550</ele>
        <time>2017-02-11T11:03:29Z</time>
      </trkpt>
      <trkpt lat="43.02467" lon="-0.65867">
        <ele>1550</ele>
        <time>2017-02-11T11:03:29Z</time>
      </trkpt>
      <trkpt lat="43.02469" lon="-0.65866">
        <ele>1550</ele>
        <time>2017-02-11T11:03:29Z</time>
      </trkpt>
      <trkpt lat="43.02475" lon="-0.65863">
        <ele>1550</ele>
        <time>2017-02-11T11:04:21Z</time>
      </trkpt>
      <trkpt lat="43.02476" lon="-0.65862">
        <ele>1550</ele>
        <time>2017-02-11T11:04:21Z</time>
      </trkpt>
      <trkpt lat="43.02476" lon="-0.65862">
        <ele>1550</ele>
        <time>2017-02-11T11:04:21Z</time>
      </trkpt>
      <trkpt lat="43.02477" lon="-0.65862">
        <ele>1550</ele>
        <time>2017-02-11T11:04:21Z</time>
      </trkpt>
      <trkpt lat="43.02478" lon="-0.65862">
        <ele>1550</ele>
        <time>2017-02-11T11:04:21Z</time>
      </trkpt>
      <trkpt lat="43.02485" lon="-0.65854">
        <ele>1550</ele>
        <time>2017-02-11T11:06:29Z</time>
      </trkpt>
      <trkpt lat="43.02485" lon="-0.65853">
        <ele>1550</ele>
        <time>2017-02-11T11:06:29Z</time>
      </trkpt>
      <trkpt lat="43.02485" lon="-0.65853">
        <ele>1550</ele>
        <time>2017-02-11T11:06:29Z</time>
      </trkpt>
      <trkpt lat="43.02486" lon="-0.65853">
        <ele>1550</ele>
        <time>2017-02-11T11:06:29Z</time>
      </trkpt>
      <trkpt lat="43.02488" lon="-0.65851">
        <ele>1550</ele>
        <time>2017-02-11T11:06:29Z</time>
      </trkpt>
      <trkpt lat="43.02489" lon="-0.65851">
        <ele>1550</ele>
        <time>2017-02-11T11:06:57Z</time>
      </trkpt>
      <trkpt lat="43.02491" lon="-0.65851">
        <ele>1550</ele>
        <time>2017-02-11T11:06:57Z</time>
      </trkpt>
      <trkpt lat="43.02493" lon="-0.65851">
        <ele>1550</ele>
        <time>2017-02-11T11:06:57Z</time>
      </trkpt>
      <trkpt lat="43.02496" lon="-0.65851">
        <ele>1550</ele>
        <time>2017-02-11T11:06:57Z</time>
      </trkpt>
      <trkpt lat="43.02499" lon="-0.65851">
        <ele>1550</ele>
        <time>2017-02-11T11:06:57Z</time>
      </trkpt>
      <trkpt lat="43.02507" lon="-0.65852">
        <ele>1550</ele>
        <time>2017-02-11T11:07:29Z</time>
      </trkpt>
      <trkpt lat="43.02507" lon="-0.65852">
        <ele>1550</ele>
        <time>2017-02-11T11:07:29Z</time>
      </trkpt>
      <trkpt lat="43.02508" lon="-0.65853">
        <ele>1550</ele>
        <time>2017-02-11T11:07:29Z</time>
      </trkpt>
      <trkpt lat="43.02508" lon="-0.65853">
        <ele>1550</ele>
        <time>2017-02-11T11:07:29Z</time>
      </trkpt>
      <trkpt lat="43.0251" lon="-0.65852">
        <ele>1550</ele>
        <time>2017-02-11T11:07:29Z</time>
      </trkpt>
      <trkpt lat="43.02512" lon="-0.65852">
        <ele>1550</ele>
        <time>2017-02-11T11:07:57Z</time>
      </trkpt>
      <trkpt lat="43.02514" lon="-0.65851">
        <ele>1550</ele>
        <time>2017-02-11T11:07:57Z</time>
      </trkpt>
      <trkpt lat="43.02516" lon="-0.65851">
        <ele>1550</ele>
        <time>2017-02-11T11:07:57Z</time>
      </trkpt>
      <trkpt lat="43.02517" lon="-0.65851">
        <ele>1550</ele>
        <time>2017-02-11T11:07:57Z</time>
      </trkpt>
      <trkpt lat="43.02522" lon="-0.65852">
        <ele>1550</ele>
        <time>2017-02-11T11:07:57Z</time>
      </trkpt>
      <trkpt lat="43.02524" lon="-0.65853">
        <ele>1550</ele>
        <time>2017-02-11T11:08:17Z</time>
      </trkpt>
      <trkpt lat="43.02528" lon="-0.65853">
        <ele>1550</ele>
        <time>2017-02-11T11:08:17Z</time>
      </trkpt>
      <trkpt lat="43.0253" lon="-0.65854">
        <ele>1550</ele>
        <time>2017-02-11T11:08:17Z</time>
      </trkpt>
      <trkpt lat="43.02532" lon="-0.65854">
        <ele>1550</ele>
        <time>2017-02-11T11:08:17Z</time>
      </trkpt>
      <trkpt lat="43.02535" lon="-0.65854">
        <ele>1550</ele>
        <time>2017-02-11T11:08:17Z</time>
      </trkpt>
      <trkpt lat="43.02542" lon="-0.65855">
        <ele>1550</ele>
        <time>2017-02-11T11:08:45Z</time>
      </trkpt>
      <trkpt lat="43.02543" lon="-0.65855">
        <ele>1506</ele>
        <time>2017-02-11T11:08:45Z</time>
      </trkpt>
      <trkpt lat="43.02544" lon="-0.65856">
        <ele>1506</ele>
        <time>2017-02-11T11:08:45Z</time>
      </trkpt>
      <trkpt lat="43.02547" lon="-0.65856">
        <ele>1506</ele>
        <time>2017-02-11T11:08:45Z</time>
      </trkpt>
      <trkpt lat="43.02549" lon="-0.65857">
        <ele>1506</ele>
        <time>2017-02-11T11:08:45Z</time>
      </trkpt>
      <trkpt lat="43.02548" lon="-0.65857">
        <ele>1506</ele>
        <time>2017-02-11T11:09:25Z</time>
      </trkpt>
      <trkpt lat="43.02553" lon="-0.65858">
        <ele>1506</ele>
        <time>2017-02-11T11:09:25Z</time>
      </trkpt>
      <trkpt lat="43.02554" lon="-0.65859">
        <ele>1506</ele>
        <time>2017-02-11T11:09:25Z</time>
      </trkpt>
      <trkpt lat="43.02556" lon="-0.65859">
        <ele>1506</ele>
        <time>2017-02-11T11:09:25Z</time>
      </trkpt>
      <trkpt lat="43.02558" lon="-0.6586">
        <ele>1506</ele>
        <time>2017-02-11T11:09:25Z</time>
      </trkpt>
      <trkpt lat="43.0256" lon="-0.6586">
        <ele>1506</ele>
        <time>2017-02-11T11:09:45Z</time>
      </trkpt>
      <trkpt lat="43.02563" lon="-0.65861">
        <ele>1506</ele>
        <time>2017-02-11T11:09:45Z</time>
      </trkpt>
      <trkpt lat="43.02566" lon="-0.65861">
        <ele>1506</ele>
        <time>2017-02-11T11:09:45Z</time>
      </trkpt>
      <trkpt lat="43.02567" lon="-0.65861">
        <ele>1506</ele>
        <time>2017-02-11T11:09:45Z</time>
      </trkpt>
      <trkpt lat="43.02569" lon="-0.65862">
        <ele>1506</ele>
        <time>2017-02-11T11:09:45Z</time>
      </trkpt>
      <trkpt lat="43.02574" lon="-0.65864">
        <ele>1506</ele>
        <time>2017-02-11T11:10:09Z</time>
      </trkpt>
      <trkpt lat="43.02576" lon="-0.65863">
        <ele>1506</ele>
        <time>2017-02-11T11:10:09Z</time>
      </trkpt>
      <trkpt lat="43.02579" lon="-0.65864">
        <ele>1506</ele>
        <time>2017-02-11T11:10:09Z</time>
      </trkpt>
      <trkpt lat="43.02581" lon="-0.65864">
        <ele>1506</ele>
        <time>2017-02-11T11:10:09Z</time>
      </trkpt>
      <trkpt lat="43.02582" lon="-0.65863">
        <ele>1506</ele>
        <time>2017-02-11T11:10:09Z</time>
      </trkpt>
      <trkpt lat="43.02588" lon="-0.65863">
        <ele>1506</ele>
        <time>2017-02-11T11:10:57Z</time>
      </trkpt>
      <trkpt lat="43.02589" lon="-0.65863">
        <ele>1506</ele>
        <time>2017-02-11T11:10:57Z</time>
      </trkpt>
      <trkpt lat="43.0259" lon="-0.65863">
        <ele>1506</ele>
        <time>2017-02-11T11:10:57Z</time>
      </trkpt>
      <trkpt lat="43.02592" lon="-0.65864">
        <ele>1506</ele>
        <time>2017-02-11T11:10:57Z</time>
      </trkpt>
      <trkpt lat="43.02593" lon="-0.65864">
        <ele>1506</ele>
        <time>2017-02-11T11:10:57Z</time>
      </trkpt>
      <trkpt lat="43.02593" lon="-0.6585">
        <ele>1506</ele>
        <time>2017-02-11T11:12:49Z</time>
      </trkpt>
      <trkpt lat="43.02592" lon="-0.65848">
        <ele>1506</ele>
        <time>2017-02-11T11:12:49Z</time>
      </trkpt>
      <trkpt lat="43.0259" lon="-0.65846">
        <ele>1506</ele>
        <time>2017-02-11T11:12:49Z</time>
      </trkpt>
      <trkpt lat="43.0259" lon="-0.65846">
        <ele>1506</ele>
        <time>2017-02-11T11:12:49Z</time>
      </trkpt>
      <trkpt lat="43.02589" lon="-0.65845">
        <ele>1506</ele>
        <time>2017-02-11T11:12:49Z</time>
      </trkpt>
      <trkpt lat="43.02589" lon="-0.65835">
        <ele>1506</ele>
        <time>2017-02-11T11:14:33Z</time>
      </trkpt>
      <trkpt lat="43.0259" lon="-0.65834">
        <ele>1506</ele>
        <time>2017-02-11T11:14:33Z</time>
      </trkpt>
      <trkpt lat="43.0259" lon="-0.65834">
        <ele>1506</ele>
        <time>2017-02-11T11:14:33Z</time>
      </trkpt>
      <trkpt lat="43.02591" lon="-0.65833">
        <ele>1506</ele>
        <time>2017-02-11T11:14:33Z</time>
      </trkpt>
      <trkpt lat="43.02592" lon="-0.65831">
        <ele>1506</ele>
        <time>2017-02-11T11:14:33Z</time>
      </trkpt>
      <trkpt lat="43.02591" lon="-0.65825">
        <ele>1506</ele>
        <time>2017-02-11T11:14:57Z</time>
      </trkpt>
      <trkpt lat="43.0259" lon="-0.65823">
        <ele>1506</ele>
        <time>2017-02-11T11:14:57Z</time>
      </trkpt>
      <trkpt lat="43.02589" lon="-0.65821">
        <ele>1506</ele>
        <time>2017-02-11T11:14:57Z</time>
      </trkpt>
      <trkpt lat="43.02589" lon="-0.65819">
        <ele>1506</ele>
        <time>2017-02-11T11:14:57Z</time>
      </trkpt>
      <trkpt lat="43.02588" lon="-0.65818">
        <ele>1506</ele>
        <time>2017-02-11T11:14:57Z</time>
      </trkpt>
      <trkpt lat="43.02582" lon="-0.65818">
        <ele>1506</ele>
        <time>2017-02-11T11:15:37Z</time>
      </trkpt>
      <trkpt lat="43.02581" lon="-0.65816">
        <ele>1506</ele>
        <time>2017-02-11T11:15:37Z</time>
      </trkpt>
      <trkpt lat="43.0258" lon="-0.65813">
        <ele>1506</ele>
        <time>2017-02-11T11:15:37Z</time>
      </trkpt>
      <trkpt lat="43.02579" lon="-0.65811">
        <ele>1506</ele>
        <time>2017-02-11T11:15:37Z</time>
      </trkpt>
      <trkpt lat="43.02578" lon="-0.65808">
        <ele>1506</ele>
        <time>2017-02-11T11:15:37Z</time>
      </trkpt>
      <trkpt lat="43.02577" lon="-0.65808">
        <ele>1506</ele>
        <time>2017-02-11T11:16:01Z</time>
      </trkpt>
      <trkpt lat="43.02576" lon="-0.65803">
        <ele>1506</ele>
        <time>2017-02-11T11:16:01Z</time>
      </trkpt>
      <trkpt lat="43.02575" lon="-0.65801">
        <ele>1506</ele>
        <time>2017-02-11T11:16:01Z</time>
      </trkpt>
      <trkpt lat="43.02575" lon="-0.65799">
        <ele>1506</ele>
        <time>2017-02-11T11:16:01Z</time>
      </trkpt>
      <trkpt lat="43.02573" lon="-0.65795">
        <ele>1506</ele>
        <time>2017-02-11T11:16:01Z</time>
      </trkpt>
      <trkpt lat="43.02571" lon="-0.65782">
        <ele>1510</ele>
        <time>2017-02-11T11:17:37Z</time>
      </trkpt>
      <trkpt lat="43.02571" lon="-0.65781">
        <ele>1510</ele>
        <time>2017-02-11T11:17:37Z</time>
      </trkpt>
      <trkpt lat="43.02571" lon="-0.65781">
        <ele>1510</ele>
        <time>2017-02-11T11:17:37Z</time>
      </trkpt>
      <trkpt lat="43.02571" lon="-0.65781">
        <ele>1510</ele>
        <time>2017-02-11T11:17:37Z</time>
      </trkpt>
      <trkpt lat="43.0257" lon="-0.65779">
        <ele>1510</ele>
        <time>2017-02-11T11:17:37Z</time>
      </trkpt>
      <trkpt lat="43.02569" lon="-0.65778">
        <ele>1510</ele>
        <time>2017-02-11T11:17:53Z</time>
      </trkpt>
      <trkpt lat="43.02568" lon="-0.65775">
        <ele>1510</ele>
        <time>2017-02-11T11:17:53Z</time>
      </trkpt>
      <trkpt lat="43.02567" lon="-0.65769">
        <ele>1510</ele>
        <time>2017-02-11T11:17:53Z</time>
      </trkpt>
      <trkpt lat="43.02565" lon="-0.65764">
        <ele>1510</ele>
        <time>2017-02-11T11:17:53Z</time>
      </trkpt>
      <trkpt lat="43.02565" lon="-0.65752">
        <ele>1510</ele>
        <time>2017-02-11T11:20:05Z</time>
      </trkpt>
      <trkpt lat="43.02566" lon="-0.6575">
        <ele>1510</ele>
        <time>2017-02-11T11:20:05Z</time>
      </trkpt>
      <trkpt lat="43.02566" lon="-0.6575">
        <ele>1510</ele>
        <time>2017-02-11T11:20:05Z</time>
      </trkpt>
      <trkpt lat="43.02566" lon="-0.6575">
        <ele>1510</ele>
        <time>2017-02-11T11:20:05Z</time>
      </trkpt>
      <trkpt lat="43.02569" lon="-0.65748">
        <ele>1510</ele>
        <time>2017-02-11T11:20:05Z</time>
      </trkpt>
      <trkpt lat="43.02568" lon="-0.65742">
        <ele>1510</ele>
        <time>2017-02-11T11:20:57Z</time>
      </trkpt>
      <trkpt lat="43.02567" lon="-0.65741">
        <ele>1510</ele>
        <time>2017-02-11T11:20:57Z</time>
      </trkpt>
      <trkpt lat="43.02567" lon="-0.65739">
        <ele>1510</ele>
        <time>2017-02-11T11:20:57Z</time>
      </trkpt>
      <trkpt lat="43.02566" lon="-0.65737">
        <ele>1510</ele>
        <time>2017-02-11T11:20:57Z</time>
      </trkpt>
      <trkpt lat="43.02565" lon="-0.65736">
        <ele>1510</ele>
        <time>2017-02-11T11:20:57Z</time>
      </trkpt>
      <trkpt lat="43.02563" lon="-0.6573">
        <ele>1510</ele>
        <time>2017-02-11T11:22:05Z</time>
      </trkpt>
      <trkpt lat="43.02562" lon="-0.65728">
        <ele>1510</ele>
        <time>2017-02-11T11:22:05Z</time>
      </trkpt>
      <trkpt lat="43.02562" lon="-0.65728">
        <ele>1510</ele>
        <time>2017-02-11T11:22:05Z</time>
      </trkpt>
      <trkpt lat="43.0256" lon="-0.65726">
        <ele>1510</ele>
        <time>2017-02-11T11:22:05Z</time>
      </trkpt>
      <trkpt lat="43.02557" lon="-0.65722">
        <ele>1510</ele>
        <time>2017-02-11T11:22:05Z</time>
      </trkpt>
      <trkpt lat="43.0255" lon="-0.65707">
        <ele>1500</ele>
        <time>2017-02-11T11:22:41Z</time>
      </trkpt>
      <trkpt lat="43.0255" lon="-0.65707">
        <ele>1500</ele>
        <time>2017-02-11T11:22:41Z</time>
      </trkpt>
      <trkpt lat="43.0255" lon="-0.65707">
        <ele>1500</ele>
        <time>2017-02-11T11:22:41Z</time>
      </trkpt>
      <trkpt lat="43.02549" lon="-0.65706">
        <ele>1500</ele>
        <time>2017-02-11T11:22:41Z</time>
      </trkpt>
      <trkpt lat="43.02547" lon="-0.65704">
        <ele>1500</ele>
        <time>2017-02-11T11:22:41Z</time>
      </trkpt>
      <trkpt lat="43.02541" lon="-0.65697">
        <ele>1535</ele>
        <time>2017-02-11T11:24:29Z</time>
      </trkpt>
      <trkpt lat="43.02541" lon="-0.65697">
        <ele>1535</ele>
        <time>2017-02-11T11:24:29Z</time>
      </trkpt>
      <trkpt lat="43.02541" lon="-0.65697">
        <ele>1535</ele>
        <time>2017-02-11T11:24:29Z</time>
      </trkpt>
      <trkpt lat="43.02541" lon="-0.65697">
        <ele>1535</ele>
        <time>2017-02-11T11:24:29Z</time>
      </trkpt>
      <trkpt lat="43.02536" lon="-0.65692">
        <ele>1535</ele>
        <time>2017-02-11T11:24:29Z</time>
      </trkpt>
      <trkpt lat="43.02532" lon="-0.65687">
        <ele>1535</ele>
        <time>2017-02-11T11:25:57Z</time>
      </trkpt>
      <trkpt lat="43.02532" lon="-0.65687">
        <ele>1535</ele>
        <time>2017-02-11T11:25:57Z</time>
      </trkpt>
      <trkpt lat="43.02532" lon="-0.65687">
        <ele>1535</ele>
        <time>2017-02-11T11:25:57Z</time>
      </trkpt>
      <trkpt lat="43.0253" lon="-0.65687">
        <ele>1535</ele>
        <time>2017-02-11T11:25:57Z</time>
      </trkpt>
      <trkpt lat="43.02524" lon="-0.65683">
        <ele>1535</ele>
        <time>2017-02-11T11:25:57Z</time>
      </trkpt>
      <trkpt lat="43.0252" lon="-0.65677">
        <ele>1535</ele>
        <time>2017-02-11T11:27:21Z</time>
      </trkpt>
      <trkpt lat="43.0252" lon="-0.65677">
        <ele>1535</ele>
        <time>2017-02-11T11:27:21Z</time>
      </trkpt>
      <trkpt lat="43.0252" lon="-0.65677">
        <ele>1535</ele>
        <time>2017-02-11T11:27:21Z</time>
      </trkpt>
      <trkpt lat="43.0252" lon="-0.65677">
        <ele>1535</ele>
        <time>2017-02-11T11:27:21Z</time>
      </trkpt>
      <trkpt lat="43.02517" lon="-0.65674">
        <ele>1535</ele>
        <time>2017-02-11T11:27:21Z</time>
      </trkpt>
      <trkpt lat="43.02514" lon="-0.65672">
        <ele>1535</ele>
        <time>2017-02-11T11:27:37Z</time>
      </trkpt>
      <trkpt lat="43.02511" lon="-0.65671">
        <ele>1535</ele>
        <time>2017-02-11T11:27:37Z</time>
      </trkpt>
      <trkpt lat="43.02507" lon="-0.65668">
        <ele>1535</ele>
        <time>2017-02-11T11:27:37Z</time>
      </trkpt>
      <trkpt lat="43.02505" lon="-0.65667">
        <ele>1535</ele>
        <time>2017-02-11T11:27:37Z</time>
      </trkpt>
      <trkpt lat="43.02502" lon="-0.65665">
        <ele>1535</ele>
        <time>2017-02-11T11:27:53Z</time>
      </trkpt>
      <trkpt lat="43.02501" lon="-0.65662">
        <ele>1535</ele>
        <time>2017-02-11T11:27:53Z</time>
      </trkpt>
      <trkpt lat="43.02499" lon="-0.65659">
        <ele>1535</ele>
        <time>2017-02-11T11:27:53Z</time>
      </trkpt>
      <trkpt lat="43.02498" lon="-0.65653">
        <ele>1535</ele>
        <time>2017-02-11T11:27:53Z</time>
      </trkpt>
      <trkpt lat="43.02493" lon="-0.65644">
        <ele>1535</ele>
        <time>2017-02-11T11:29:01Z</time>
      </trkpt>
      <trkpt lat="43.02491" lon="-0.65643">
        <ele>1535</ele>
        <time>2017-02-11T11:29:01Z</time>
      </trkpt>
      <trkpt lat="43.02491" lon="-0.65643">
        <ele>1535</ele>
        <time>2017-02-11T11:29:01Z</time>
      </trkpt>
      <trkpt lat="43.02491" lon="-0.65643">
        <ele>1535</ele>
        <time>2017-02-11T11:29:01Z</time>
      </trkpt>
      <trkpt lat="43.02489" lon="-0.65636">
        <ele>1535</ele>
        <time>2017-02-11T11:29:01Z</time>
      </trkpt>
      <trkpt lat="43.02486" lon="-0.65628">
        <ele>1535</ele>
        <time>2017-02-11T11:29:21Z</time>
      </trkpt>
      <trkpt lat="43.02485" lon="-0.65625">
        <ele>1527</ele>
        <time>2017-02-11T11:29:21Z</time>
      </trkpt>
      <trkpt lat="43.02485" lon="-0.6562">
        <ele>1527</ele>
        <time>2017-02-11T11:29:21Z</time>
      </trkpt>
      <trkpt lat="43.02484" lon="-0.65616">
        <ele>1527</ele>
        <time>2017-02-11T11:29:21Z</time>
      </trkpt>
      <trkpt lat="43.02484" lon="-0.65613">
        <ele>1527</ele>
        <time>2017-02-11T11:29:21Z</time>
      </trkpt>
    </trkseg>
  </trk>
</gpx>